<?xml version="1.0" encoding="UTF-8" standalone="no" ?>
<gpx xmlns="http://www.topografix.com/GPX/1/1" xmlns:xsi="http://www.w3.org/2001/XMLSchema-instance" xsi:schemaLocation="http://www.topografix.com/GPX/1/1 http://www.topografix.com/GPX/1/1/gpx.xsd" version="1.1" creator="VisuGPX - https://www.visugpx.com">
  <metadata>
    <name>Beaux dimanche Virignin 2013</name>
    <desc><![CDATA[Beaux dimanche Virignin 2013]]></desc>
  </metadata>
  <trk>
    <name><![CDATA[Virignin 2013-05-05 09:41]]></name>
    <trkseg>
      <trkpt lat="45.71407" lon="5.6998">
        <ele>218</ele>
        <time>2013-05-05T07:43:47Z</time>
      </trkpt>
      <trkpt lat="45.71394" lon="5.6996">
        <ele>218.9</ele>
        <time>2013-05-05T07:44:17Z</time>
      </trkpt>
      <trkpt lat="45.71405" lon="5.70023">
        <ele>218</ele>
        <time>2013-05-05T07:44:48Z</time>
      </trkpt>
      <trkpt lat="45.71415" lon="5.6999">
        <ele>218</ele>
        <time>2013-05-05T07:45:19Z</time>
      </trkpt>
      <trkpt lat="45.71418" lon="5.69939">
        <ele>220.4</ele>
        <time>2013-05-05T07:45:50Z</time>
      </trkpt>
      <trkpt lat="45.71417" lon="5.69882">
        <ele>222</ele>
        <time>2013-05-05T07:46:21Z</time>
      </trkpt>
      <trkpt lat="45.71414" lon="5.69811">
        <ele>221.9</ele>
        <time>2013-05-05T07:46:52Z</time>
      </trkpt>
      <trkpt lat="45.71417" lon="5.69751">
        <ele>223</ele>
        <time>2013-05-05T07:47:23Z</time>
      </trkpt>
      <trkpt lat="45.7141" lon="5.69674">
        <ele>225.3</ele>
        <time>2013-05-05T07:47:54Z</time>
      </trkpt>
      <trkpt lat="45.71402" lon="5.69622">
        <ele>227.7</ele>
        <time>2013-05-05T07:48:25Z</time>
      </trkpt>
      <trkpt lat="45.71442" lon="5.69725">
        <ele>228.70001220703</ele>
        <time>2013-05-05T07:48:56Z</time>
      </trkpt>
      <trkpt lat="45.71426" lon="5.69721">
        <ele>251.40002441406</ele>
        <time>2013-05-05T07:49:21Z</time>
      </trkpt>
      <trkpt lat="45.71388" lon="5.69708">
        <ele>235.20001220703</ele>
        <time>2013-05-05T07:51:14Z</time>
      </trkpt>
      <trkpt lat="45.71358" lon="5.69691">
        <ele>234.70001220703</ele>
        <time>2013-05-05T07:51:34Z</time>
      </trkpt>
      <trkpt lat="45.71329" lon="5.69686">
        <ele>233.70001220703</ele>
        <time>2013-05-05T07:51:57Z</time>
      </trkpt>
      <trkpt lat="45.71299" lon="5.69675">
        <ele>233.70001220703</ele>
        <time>2013-05-05T07:52:19Z</time>
      </trkpt>
      <trkpt lat="45.7127" lon="5.69669">
        <ele>232.79998779297</ele>
        <time>2013-05-05T07:52:40Z</time>
      </trkpt>
      <trkpt lat="45.71244" lon="5.69654">
        <ele>235</ele>
        <time>2013-05-05T07:53:01Z</time>
      </trkpt>
      <trkpt lat="45.71211" lon="5.69642">
        <ele>237.09997558594</ele>
        <time>2013-05-05T07:53:23Z</time>
      </trkpt>
      <trkpt lat="45.71181" lon="5.69632">
        <ele>237.90002441406</ele>
        <time>2013-05-05T07:53:45Z</time>
      </trkpt>
      <trkpt lat="45.71166" lon="5.69623">
        <ele>238.59997558594</ele>
        <time>2013-05-05T07:54:07Z</time>
      </trkpt>
      <trkpt lat="45.71151" lon="5.69605">
        <ele>239.5</ele>
        <time>2013-05-05T07:54:29Z</time>
      </trkpt>
      <trkpt lat="45.71137" lon="5.69569">
        <ele>243.09997558594</ele>
        <time>2013-05-05T07:54:50Z</time>
      </trkpt>
      <trkpt lat="45.71121" lon="5.69531">
        <ele>246.40002441406</ele>
        <time>2013-05-05T07:55:15Z</time>
      </trkpt>
      <trkpt lat="45.71103" lon="5.69497">
        <ele>250.29998779297</ele>
        <time>2013-05-05T07:55:37Z</time>
      </trkpt>
      <trkpt lat="45.71097" lon="5.69473">
        <ele>254</ele>
        <time>2013-05-05T07:55:58Z</time>
      </trkpt>
      <trkpt lat="45.7108" lon="5.69421">
        <ele>258.90002441406</ele>
        <time>2013-05-05T07:56:21Z</time>
      </trkpt>
      <trkpt lat="45.7106" lon="5.69371">
        <ele>266</ele>
        <time>2013-05-05T07:56:45Z</time>
      </trkpt>
      <trkpt lat="45.71032" lon="5.69296">
        <ele>270.29998779297</ele>
        <time>2013-05-05T07:57:08Z</time>
      </trkpt>
      <trkpt lat="45.70988" lon="5.69318">
        <ele>270</ele>
        <time>2013-05-05T07:57:34Z</time>
      </trkpt>
      <trkpt lat="45.70912" lon="5.69231">
        <ele>269.40002441406</ele>
        <time>2013-05-05T07:58:01Z</time>
      </trkpt>
      <trkpt lat="45.70921" lon="5.69191">
        <ele>274.79998779297</ele>
        <time>2013-05-05T07:58:26Z</time>
      </trkpt>
      <trkpt lat="45.70897" lon="5.69008">
        <ele>274.29998779297</ele>
        <time>2013-05-05T07:58:49Z</time>
      </trkpt>
      <trkpt lat="45.70902" lon="5.68971">
        <ele>277</ele>
        <time>2013-05-05T07:59:13Z</time>
      </trkpt>
      <trkpt lat="45.7091" lon="5.68928">
        <ele>278.40002441406</ele>
        <time>2013-05-05T07:59:37Z</time>
      </trkpt>
      <trkpt lat="45.70933" lon="5.68884">
        <ele>275.90002441406</ele>
        <time>2013-05-05T08:00:06Z</time>
      </trkpt>
      <trkpt lat="45.70946" lon="5.68841">
        <ele>276.5</ele>
        <time>2013-05-05T08:00:33Z</time>
      </trkpt>
      <trkpt lat="45.70966" lon="5.68813">
        <ele>277.40002441406</ele>
        <time>2013-05-05T08:00:59Z</time>
      </trkpt>
      <trkpt lat="45.70984" lon="5.68796">
        <ele>277.5</ele>
        <time>2013-05-05T08:01:24Z</time>
      </trkpt>
      <trkpt lat="45.71007" lon="5.68767">
        <ele>280.29998779297</ele>
        <time>2013-05-05T08:01:50Z</time>
      </trkpt>
      <trkpt lat="45.71027" lon="5.68764">
        <ele>278.90002441406</ele>
        <time>2013-05-05T08:02:14Z</time>
      </trkpt>
      <trkpt lat="45.71054" lon="5.68779">
        <ele>273</ele>
        <time>2013-05-05T08:02:38Z</time>
      </trkpt>
      <trkpt lat="45.7108" lon="5.68798">
        <ele>264.79998779297</ele>
        <time>2013-05-05T08:03:01Z</time>
      </trkpt>
      <trkpt lat="45.7109" lon="5.68838">
        <ele>250.90002441406</ele>
        <time>2013-05-05T08:03:22Z</time>
      </trkpt>
      <trkpt lat="45.71253" lon="5.68978">
        <ele>273.09997558594</ele>
        <time>2013-05-05T08:04:01Z</time>
      </trkpt>
      <trkpt lat="45.71389" lon="5.69088">
        <ele>273</ele>
        <time>2013-05-05T08:04:24Z</time>
      </trkpt>
      <trkpt lat="45.71412" lon="5.69133">
        <ele>272.5</ele>
        <time>2013-05-05T08:04:50Z</time>
      </trkpt>
      <trkpt lat="45.7144" lon="5.69179">
        <ele>272.5</ele>
        <time>2013-05-05T08:05:14Z</time>
      </trkpt>
      <trkpt lat="45.71467" lon="5.69208">
        <ele>270.40002441406</ele>
        <time>2013-05-05T08:05:37Z</time>
      </trkpt>
      <trkpt lat="45.71501" lon="5.69234">
        <ele>267.5</ele>
        <time>2013-05-05T08:05:59Z</time>
      </trkpt>
      <trkpt lat="45.71536" lon="5.69224">
        <ele>266.79998779297</ele>
        <time>2013-05-05T08:06:21Z</time>
      </trkpt>
      <trkpt lat="45.71571" lon="5.69256">
        <ele>264.70001220703</ele>
        <time>2013-05-05T08:06:45Z</time>
      </trkpt>
      <trkpt lat="45.71606" lon="5.69273">
        <ele>264.5</ele>
        <time>2013-05-05T08:07:08Z</time>
      </trkpt>
      <trkpt lat="45.71638" lon="5.69282">
        <ele>262.20001220703</ele>
        <time>2013-05-05T08:07:32Z</time>
      </trkpt>
      <trkpt lat="45.71666" lon="5.69264">
        <ele>264.09997558594</ele>
        <time>2013-05-05T08:07:54Z</time>
      </trkpt>
      <trkpt lat="45.71702" lon="5.69233">
        <ele>264.59997558594</ele>
        <time>2013-05-05T08:08:16Z</time>
      </trkpt>
      <trkpt lat="45.71695" lon="5.69167">
        <ele>264.5</ele>
        <time>2013-05-05T08:08:40Z</time>
      </trkpt>
      <trkpt lat="45.71679" lon="5.69139">
        <ele>262.79998779297</ele>
        <time>2013-05-05T08:09:03Z</time>
      </trkpt>
      <trkpt lat="45.71669" lon="5.69092">
        <ele>263.20001220703</ele>
        <time>2013-05-05T08:09:25Z</time>
      </trkpt>
      <trkpt lat="45.71658" lon="5.69042">
        <ele>263.5</ele>
        <time>2013-05-05T08:09:46Z</time>
      </trkpt>
      <trkpt lat="45.71627" lon="5.68971">
        <ele>266.20001220703</ele>
        <time>2013-05-05T08:10:09Z</time>
      </trkpt>
      <trkpt lat="45.7165" lon="5.68939">
        <ele>265</ele>
        <time>2013-05-05T08:10:32Z</time>
      </trkpt>
      <trkpt lat="45.71693" lon="5.68926">
        <ele>264.29998779297</ele>
        <time>2013-05-05T08:10:56Z</time>
      </trkpt>
      <trkpt lat="45.71675" lon="5.68872">
        <ele>268</ele>
        <time>2013-05-05T08:11:19Z</time>
      </trkpt>
      <trkpt lat="45.71684" lon="5.68818">
        <ele>269.90002441406</ele>
        <time>2013-05-05T08:11:43Z</time>
      </trkpt>
      <trkpt lat="45.71689" lon="5.68787">
        <ele>271.20001220703</ele>
        <time>2013-05-05T08:12:06Z</time>
      </trkpt>
      <trkpt lat="45.71683" lon="5.68721">
        <ele>274.79998779297</ele>
        <time>2013-05-05T08:12:30Z</time>
      </trkpt>
      <trkpt lat="45.71714" lon="5.68686">
        <ele>274.20001220703</ele>
        <time>2013-05-05T08:12:54Z</time>
      </trkpt>
      <trkpt lat="45.71734" lon="5.68625">
        <ele>274.5</ele>
        <time>2013-05-05T08:13:17Z</time>
      </trkpt>
      <trkpt lat="45.71718" lon="5.68583">
        <ele>276.70001220703</ele>
        <time>2013-05-05T08:13:41Z</time>
      </trkpt>
      <trkpt lat="45.7172" lon="5.68529">
        <ele>275.09997558594</ele>
        <time>2013-05-05T08:14:04Z</time>
      </trkpt>
      <trkpt lat="45.71708" lon="5.68482">
        <ele>276.09997558594</ele>
        <time>2013-05-05T08:14:28Z</time>
      </trkpt>
      <trkpt lat="45.71692" lon="5.6842">
        <ele>273.09997558594</ele>
        <time>2013-05-05T08:14:59Z</time>
      </trkpt>
      <trkpt lat="45.71663" lon="5.68365">
        <ele>279.40002441406</ele>
        <time>2013-05-05T08:15:31Z</time>
      </trkpt>
      <trkpt lat="45.71682" lon="5.68294">
        <ele>268.70001220703</ele>
        <time>2013-05-05T08:16:04Z</time>
      </trkpt>
      <trkpt lat="45.71786" lon="5.68142">
        <ele>268.70001220703</ele>
        <time>2013-05-05T08:16:37Z</time>
      </trkpt>
      <trkpt lat="45.71858" lon="5.68195">
        <ele>247.79998779297</ele>
        <time>2013-05-05T08:17:09Z</time>
      </trkpt>
      <trkpt lat="45.72001" lon="5.68272">
        <ele>191.09997558594</ele>
        <time>2013-05-05T08:17:41Z</time>
      </trkpt>
      <trkpt lat="45.72038" lon="5.68152">
        <ele>191.09997558594</ele>
        <time>2013-05-05T08:18:13Z</time>
      </trkpt>
      <trkpt lat="45.72023" lon="5.68109">
        <ele>203.5</ele>
        <time>2013-05-05T08:18:45Z</time>
      </trkpt>
      <trkpt lat="45.71998" lon="5.68072">
        <ele>217.5</ele>
        <time>2013-05-05T08:19:17Z</time>
      </trkpt>
      <trkpt lat="45.71951" lon="5.68063">
        <ele>231.90002441406</ele>
        <time>2013-05-05T08:19:48Z</time>
      </trkpt>
      <trkpt lat="45.71911" lon="5.68036">
        <ele>246.40002441406</ele>
        <time>2013-05-05T08:20:19Z</time>
      </trkpt>
      <trkpt lat="45.71866" lon="5.68029">
        <ele>263.79998779297</ele>
        <time>2013-05-05T08:20:51Z</time>
      </trkpt>
      <trkpt lat="45.71819" lon="5.68014">
        <ele>277.40002441406</ele>
        <time>2013-05-05T08:21:23Z</time>
      </trkpt>
      <trkpt lat="45.71759" lon="5.68054">
        <ele>277.40002441406</ele>
        <time>2013-05-05T08:21:54Z</time>
      </trkpt>
      <trkpt lat="45.71717" lon="5.68087">
        <ele>277.40002441406</ele>
        <time>2013-05-05T08:22:25Z</time>
      </trkpt>
      <trkpt lat="45.71745" lon="5.68044">
        <ele>277.40002441406</ele>
        <time>2013-05-05T08:22:57Z</time>
      </trkpt>
      <trkpt lat="45.71601" lon="5.68148">
        <ele>371.90002441406</ele>
        <time>2013-05-05T08:25:25Z</time>
      </trkpt>
      <trkpt lat="45.71561" lon="5.68217">
        <ele>354.40002441406</ele>
        <time>2013-05-05T08:26:00Z</time>
      </trkpt>
      <trkpt lat="45.71553" lon="5.68286">
        <ele>354.29998779297</ele>
        <time>2013-05-05T08:26:34Z</time>
      </trkpt>
      <trkpt lat="45.71498" lon="5.68319">
        <ele>347.29998779297</ele>
        <time>2013-05-05T08:27:09Z</time>
      </trkpt>
      <trkpt lat="45.71448" lon="5.68329">
        <ele>336</ele>
        <time>2013-05-05T08:27:41Z</time>
      </trkpt>
      <trkpt lat="45.71408" lon="5.68276">
        <ele>350</ele>
        <time>2013-05-05T08:28:16Z</time>
      </trkpt>
      <trkpt lat="45.71328" lon="5.68124">
        <ele>363</ele>
        <time>2013-05-05T08:28:55Z</time>
      </trkpt>
      <trkpt lat="45.71326" lon="5.68035">
        <ele>374.90002441406</ele>
        <time>2013-05-05T08:29:35Z</time>
      </trkpt>
      <trkpt lat="45.71305" lon="5.67961">
        <ele>351.40002441406</ele>
        <time>2013-05-05T08:30:10Z</time>
      </trkpt>
      <trkpt lat="45.71266" lon="5.67924">
        <ele>364.40002441406</ele>
        <time>2013-05-05T08:30:45Z</time>
      </trkpt>
      <trkpt lat="45.71207" lon="5.67917">
        <ele>336.59997558594</ele>
        <time>2013-05-05T08:31:17Z</time>
      </trkpt>
      <trkpt lat="45.71157" lon="5.67933">
        <ele>307.90002441406</ele>
        <time>2013-05-05T08:31:45Z</time>
      </trkpt>
      <trkpt lat="45.71124" lon="5.67929">
        <ele>324.09997558594</ele>
        <time>2013-05-05T08:32:14Z</time>
      </trkpt>
      <trkpt lat="45.71065" lon="5.6794">
        <ele>290.40002441406</ele>
        <time>2013-05-05T08:32:41Z</time>
      </trkpt>
      <trkpt lat="45.71097" lon="5.67782">
        <ele>301.70001220703</ele>
        <time>2013-05-05T08:33:08Z</time>
      </trkpt>
      <trkpt lat="45.71081" lon="5.67695">
        <ele>304.90002441406</ele>
        <time>2013-05-05T08:33:35Z</time>
      </trkpt>
      <trkpt lat="45.71069" lon="5.67647">
        <ele>301.29998779297</ele>
        <time>2013-05-05T08:34:03Z</time>
      </trkpt>
      <trkpt lat="45.7103" lon="5.67643">
        <ele>281.40002441406</ele>
        <time>2013-05-05T08:34:30Z</time>
      </trkpt>
      <trkpt lat="45.70997" lon="5.67635">
        <ele>278.90002441406</ele>
        <time>2013-05-05T08:34:57Z</time>
      </trkpt>
      <trkpt lat="45.70965" lon="5.67627">
        <ele>289.90002441406</ele>
        <time>2013-05-05T08:35:23Z</time>
      </trkpt>
      <trkpt lat="45.70913" lon="5.67642">
        <ele>286</ele>
        <time>2013-05-05T08:35:50Z</time>
      </trkpt>
      <trkpt lat="45.70845" lon="5.67641">
        <ele>273.5</ele>
        <time>2013-05-05T08:36:16Z</time>
      </trkpt>
      <trkpt lat="45.70783" lon="5.67624">
        <ele>267.79998779297</ele>
        <time>2013-05-05T08:36:43Z</time>
      </trkpt>
      <trkpt lat="45.70699" lon="5.67638">
        <ele>270.5</ele>
        <time>2013-05-05T08:37:09Z</time>
      </trkpt>
      <trkpt lat="45.70663" lon="5.67629">
        <ele>268.59997558594</ele>
        <time>2013-05-05T08:37:36Z</time>
      </trkpt>
      <trkpt lat="45.7064" lon="5.67581">
        <ele>267.09997558594</ele>
        <time>2013-05-05T08:38:11Z</time>
      </trkpt>
      <trkpt lat="45.70631" lon="5.67512">
        <ele>265.29998779297</ele>
        <time>2013-05-05T08:38:45Z</time>
      </trkpt>
      <trkpt lat="45.70608" lon="5.67451">
        <ele>262.09997558594</ele>
        <time>2013-05-05T08:39:20Z</time>
      </trkpt>
      <trkpt lat="45.70591" lon="5.6737">
        <ele>265.59997558594</ele>
        <time>2013-05-05T08:39:55Z</time>
      </trkpt>
      <trkpt lat="45.70583" lon="5.67324">
        <ele>262.59997558594</ele>
        <time>2013-05-05T08:40:18Z</time>
      </trkpt>
      <trkpt lat="45.70584" lon="5.67279">
        <ele>268.70001220703</ele>
        <time>2013-05-05T08:40:40Z</time>
      </trkpt>
      <trkpt lat="45.70586" lon="5.67222">
        <ele>271</ele>
        <time>2013-05-05T08:41:04Z</time>
      </trkpt>
      <trkpt lat="45.70606" lon="5.67177">
        <ele>267.79998779297</ele>
        <time>2013-05-05T08:41:27Z</time>
      </trkpt>
      <trkpt lat="45.70628" lon="5.67133">
        <ele>277</ele>
        <time>2013-05-05T08:41:50Z</time>
      </trkpt>
      <trkpt lat="45.7064" lon="5.67092">
        <ele>273</ele>
        <time>2013-05-05T08:42:13Z</time>
      </trkpt>
      <trkpt lat="45.70657" lon="5.67045">
        <ele>271.20001220703</ele>
        <time>2013-05-05T08:42:37Z</time>
      </trkpt>
      <trkpt lat="45.70663" lon="5.67019">
        <ele>280.59997558594</ele>
        <time>2013-05-05T08:43:01Z</time>
      </trkpt>
      <trkpt lat="45.70675" lon="5.6698">
        <ele>288.5</ele>
        <time>2013-05-05T08:43:24Z</time>
      </trkpt>
      <trkpt lat="45.7069" lon="5.66938">
        <ele>298.09997558594</ele>
        <time>2013-05-05T08:43:50Z</time>
      </trkpt>
      <trkpt lat="45.70696" lon="5.66889">
        <ele>291.40002441406</ele>
        <time>2013-05-05T08:44:16Z</time>
      </trkpt>
      <trkpt lat="45.70693" lon="5.66836">
        <ele>291.79998779297</ele>
        <time>2013-05-05T08:44:41Z</time>
      </trkpt>
      <trkpt lat="45.70695" lon="5.66782">
        <ele>293</ele>
        <time>2013-05-05T08:45:06Z</time>
      </trkpt>
      <trkpt lat="45.70698" lon="5.66728">
        <ele>292.59997558594</ele>
        <time>2013-05-05T08:45:32Z</time>
      </trkpt>
      <trkpt lat="45.70702" lon="5.66673">
        <ele>295.40002441406</ele>
        <time>2013-05-05T08:45:58Z</time>
      </trkpt>
      <trkpt lat="45.70706" lon="5.66619">
        <ele>292.40002441406</ele>
        <time>2013-05-05T08:46:24Z</time>
      </trkpt>
      <trkpt lat="45.70708" lon="5.66569">
        <ele>291.09997558594</ele>
        <time>2013-05-05T08:46:50Z</time>
      </trkpt>
      <trkpt lat="45.7071" lon="5.66514">
        <ele>289.90002441406</ele>
        <time>2013-05-05T08:47:15Z</time>
      </trkpt>
      <trkpt lat="45.70723" lon="5.66462">
        <ele>288.29998779297</ele>
        <time>2013-05-05T08:47:40Z</time>
      </trkpt>
      <trkpt lat="45.70744" lon="5.66424">
        <ele>282.70001220703</ele>
        <time>2013-05-05T08:48:05Z</time>
      </trkpt>
      <trkpt lat="45.70753" lon="5.66375">
        <ele>289.70001220703</ele>
        <time>2013-05-05T08:48:30Z</time>
      </trkpt>
      <trkpt lat="45.70752" lon="5.66324">
        <ele>280.90002441406</ele>
        <time>2013-05-05T08:48:55Z</time>
      </trkpt>
      <trkpt lat="45.70749" lon="5.66277">
        <ele>279.90002441406</ele>
        <time>2013-05-05T08:49:19Z</time>
      </trkpt>
      <trkpt lat="45.70753" lon="5.66227">
        <ele>274</ele>
        <time>2013-05-05T08:49:42Z</time>
      </trkpt>
      <trkpt lat="45.70763" lon="5.66169">
        <ele>271.79998779297</ele>
        <time>2013-05-05T08:50:06Z</time>
      </trkpt>
      <trkpt lat="45.70767" lon="5.66115">
        <ele>274.5</ele>
        <time>2013-05-05T08:50:30Z</time>
      </trkpt>
      <trkpt lat="45.7077" lon="5.66062">
        <ele>276</ele>
        <time>2013-05-05T08:50:54Z</time>
      </trkpt>
      <trkpt lat="45.7077" lon="5.66013">
        <ele>269.09997558594</ele>
        <time>2013-05-05T08:51:16Z</time>
      </trkpt>
      <trkpt lat="45.70766" lon="5.65956">
        <ele>272.20001220703</ele>
        <time>2013-05-05T08:51:39Z</time>
      </trkpt>
      <trkpt lat="45.70766" lon="5.65903">
        <ele>269.70001220703</ele>
        <time>2013-05-05T08:52:02Z</time>
      </trkpt>
      <trkpt lat="45.7077" lon="5.65841">
        <ele>273.90002441406</ele>
        <time>2013-05-05T08:52:26Z</time>
      </trkpt>
      <trkpt lat="45.708" lon="5.65781">
        <ele>286.40002441406</ele>
        <time>2013-05-05T08:52:51Z</time>
      </trkpt>
      <trkpt lat="45.70823" lon="5.65734">
        <ele>275.70001220703</ele>
        <time>2013-05-05T08:53:15Z</time>
      </trkpt>
      <trkpt lat="45.70834" lon="5.6569">
        <ele>278.59997558594</ele>
        <time>2013-05-05T08:53:39Z</time>
      </trkpt>
      <trkpt lat="45.70822" lon="5.65641">
        <ele>278.40002441406</ele>
        <time>2013-05-05T08:54:02Z</time>
      </trkpt>
      <trkpt lat="45.70808" lon="5.65593">
        <ele>283.40002441406</ele>
        <time>2013-05-05T08:54:27Z</time>
      </trkpt>
      <trkpt lat="45.70802" lon="5.65552">
        <ele>279.70001220703</ele>
        <time>2013-05-05T08:54:50Z</time>
      </trkpt>
      <trkpt lat="45.70789" lon="5.65506">
        <ele>280.90002441406</ele>
        <time>2013-05-05T08:55:14Z</time>
      </trkpt>
      <trkpt lat="45.70802" lon="5.65472">
        <ele>287.09997558594</ele>
        <time>2013-05-05T08:55:39Z</time>
      </trkpt>
      <trkpt lat="45.70791" lon="5.65437">
        <ele>275.59997558594</ele>
        <time>2013-05-05T08:56:02Z</time>
      </trkpt>
      <trkpt lat="45.70789" lon="5.65404">
        <ele>288.29998779297</ele>
        <time>2013-05-05T08:56:27Z</time>
      </trkpt>
      <trkpt lat="45.70853" lon="5.65324">
        <ele>282.40002441406</ele>
        <time>2013-05-05T08:56:51Z</time>
      </trkpt>
      <trkpt lat="45.70886" lon="5.65302">
        <ele>295.29998779297</ele>
        <time>2013-05-05T08:57:16Z</time>
      </trkpt>
      <trkpt lat="45.70917" lon="5.65322">
        <ele>304.79998779297</ele>
        <time>2013-05-05T08:57:41Z</time>
      </trkpt>
      <trkpt lat="45.7095" lon="5.65347">
        <ele>309.70001220703</ele>
        <time>2013-05-05T08:58:08Z</time>
      </trkpt>
      <trkpt lat="45.70995" lon="5.65376">
        <ele>319.70001220703</ele>
        <time>2013-05-05T08:58:37Z</time>
      </trkpt>
      <trkpt lat="45.71077" lon="5.65453">
        <ele>324.09997558594</ele>
        <time>2013-05-05T08:59:00Z</time>
      </trkpt>
      <trkpt lat="45.71212" lon="5.65495">
        <ele>331.90002441406</ele>
        <time>2013-05-05T08:59:29Z</time>
      </trkpt>
      <trkpt lat="45.71243" lon="5.65471">
        <ele>330.79998779297</ele>
        <time>2013-05-05T08:59:57Z</time>
      </trkpt>
      <trkpt lat="45.71249" lon="5.65434">
        <ele>315.70001220703</ele>
        <time>2013-05-05T09:00:16Z</time>
      </trkpt>
      <trkpt lat="45.71257" lon="5.65383">
        <ele>316.79998779297</ele>
        <time>2013-05-05T09:00:37Z</time>
      </trkpt>
      <trkpt lat="45.71262" lon="5.65302">
        <ele>318.59997558594</ele>
        <time>2013-05-05T09:00:59Z</time>
      </trkpt>
      <trkpt lat="45.71257" lon="5.65265">
        <ele>317.70001220703</ele>
        <time>2013-05-05T09:01:19Z</time>
      </trkpt>
      <trkpt lat="45.71301" lon="5.65253">
        <ele>322.20001220703</ele>
        <time>2013-05-05T09:01:47Z</time>
      </trkpt>
      <trkpt lat="45.71345" lon="5.65254">
        <ele>321.90002441406</ele>
        <time>2013-05-05T09:02:16Z</time>
      </trkpt>
      <trkpt lat="45.71391" lon="5.65288">
        <ele>324</ele>
        <time>2013-05-05T09:02:42Z</time>
      </trkpt>
      <trkpt lat="45.71438" lon="5.6532">
        <ele>321</ele>
        <time>2013-05-05T09:03:11Z</time>
      </trkpt>
      <trkpt lat="45.71475" lon="5.65347">
        <ele>326.40002441406</ele>
        <time>2013-05-05T09:03:39Z</time>
      </trkpt>
      <trkpt lat="45.71514" lon="5.65378">
        <ele>327.40002441406</ele>
        <time>2013-05-05T09:04:08Z</time>
      </trkpt>
      <trkpt lat="45.71561" lon="5.65399">
        <ele>328</ele>
        <time>2013-05-05T09:04:38Z</time>
      </trkpt>
      <trkpt lat="45.71588" lon="5.65372">
        <ele>327.29998779297</ele>
        <time>2013-05-05T09:05:02Z</time>
      </trkpt>
      <trkpt lat="45.71617" lon="5.65394">
        <ele>329.40002441406</ele>
        <time>2013-05-05T09:05:25Z</time>
      </trkpt>
      <trkpt lat="45.71662" lon="5.65424">
        <ele>331.79998779297</ele>
        <time>2013-05-05T09:05:52Z</time>
      </trkpt>
      <trkpt lat="45.717" lon="5.65449">
        <ele>332.79998779297</ele>
        <time>2013-05-05T09:06:20Z</time>
      </trkpt>
      <trkpt lat="45.71751" lon="5.65486">
        <ele>339.29998779297</ele>
        <time>2013-05-05T09:06:50Z</time>
      </trkpt>
      <trkpt lat="45.71794" lon="5.65507">
        <ele>336.5</ele>
        <time>2013-05-05T09:07:22Z</time>
      </trkpt>
      <trkpt lat="45.71836" lon="5.65512">
        <ele>336</ele>
        <time>2013-05-05T09:07:52Z</time>
      </trkpt>
      <trkpt lat="45.71874" lon="5.6553">
        <ele>336.5</ele>
        <time>2013-05-05T09:08:17Z</time>
      </trkpt>
      <trkpt lat="45.71914" lon="5.65543">
        <ele>337.20001220703</ele>
        <time>2013-05-05T09:08:46Z</time>
      </trkpt>
      <trkpt lat="45.71954" lon="5.65551">
        <ele>330.5</ele>
        <time>2013-05-05T09:09:14Z</time>
      </trkpt>
      <trkpt lat="45.72001" lon="5.65564">
        <ele>331.29998779297</ele>
        <time>2013-05-05T09:09:46Z</time>
      </trkpt>
      <trkpt lat="45.72035" lon="5.65584">
        <ele>334</ele>
        <time>2013-05-05T09:10:13Z</time>
      </trkpt>
      <trkpt lat="45.72064" lon="5.65594">
        <ele>335.5</ele>
        <time>2013-05-05T09:10:36Z</time>
      </trkpt>
      <trkpt lat="45.72115" lon="5.65603">
        <ele>328</ele>
        <time>2013-05-05T09:10:59Z</time>
      </trkpt>
      <trkpt lat="45.7217" lon="5.65611">
        <ele>327.20001220703</ele>
        <time>2013-05-05T09:11:23Z</time>
      </trkpt>
      <trkpt lat="45.72201" lon="5.65605">
        <ele>332.40002441406</ele>
        <time>2013-05-05T09:11:46Z</time>
      </trkpt>
      <trkpt lat="45.72243" lon="5.65604">
        <ele>332.70001220703</ele>
        <time>2013-05-05T09:12:15Z</time>
      </trkpt>
      <trkpt lat="45.72266" lon="5.65585">
        <ele>329.40002441406</ele>
        <time>2013-05-05T09:12:39Z</time>
      </trkpt>
      <trkpt lat="45.72235" lon="5.65559">
        <ele>330.29998779297</ele>
        <time>2013-05-05T09:13:02Z</time>
      </trkpt>
      <trkpt lat="45.72234" lon="5.65512">
        <ele>327.79998779297</ele>
        <time>2013-05-05T09:13:33Z</time>
      </trkpt>
      <trkpt lat="45.72296" lon="5.65411">
        <ele>326.5</ele>
        <time>2013-05-05T09:13:59Z</time>
      </trkpt>
      <trkpt lat="45.7236" lon="5.65266">
        <ele>337.20001220703</ele>
        <time>2013-05-05T09:14:21Z</time>
      </trkpt>
      <trkpt lat="45.72413" lon="5.65204">
        <ele>346.29998779297</ele>
        <time>2013-05-05T09:14:56Z</time>
      </trkpt>
      <trkpt lat="45.72459" lon="5.65236">
        <ele>342.59997558594</ele>
        <time>2013-05-05T09:15:30Z</time>
      </trkpt>
      <trkpt lat="45.72508" lon="5.65267">
        <ele>346.40002441406</ele>
        <time>2013-05-05T09:16:05Z</time>
      </trkpt>
      <trkpt lat="45.72555" lon="5.65302">
        <ele>342</ele>
        <time>2013-05-05T09:16:39Z</time>
      </trkpt>
      <trkpt lat="45.72604" lon="5.65288">
        <ele>331.70001220703</ele>
        <time>2013-05-05T09:17:11Z</time>
      </trkpt>
      <trkpt lat="45.72633" lon="5.6523">
        <ele>328.79998779297</ele>
        <time>2013-05-05T09:17:42Z</time>
      </trkpt>
      <trkpt lat="45.72671" lon="5.65189">
        <ele>329.79998779297</ele>
        <time>2013-05-05T09:18:13Z</time>
      </trkpt>
      <trkpt lat="45.72714" lon="5.65166">
        <ele>330.70001220703</ele>
        <time>2013-05-05T09:18:42Z</time>
      </trkpt>
      <trkpt lat="45.72751" lon="5.65138">
        <ele>328.09997558594</ele>
        <time>2013-05-05T09:19:08Z</time>
      </trkpt>
      <trkpt lat="45.72794" lon="5.65102">
        <ele>327.5</ele>
        <time>2013-05-05T09:19:38Z</time>
      </trkpt>
      <trkpt lat="45.72836" lon="5.65076">
        <ele>320.79998779297</ele>
        <time>2013-05-05T09:20:08Z</time>
      </trkpt>
      <trkpt lat="45.72848" lon="5.65021">
        <ele>322.29998779297</ele>
        <time>2013-05-05T09:20:38Z</time>
      </trkpt>
      <trkpt lat="45.7288" lon="5.65007">
        <ele>325.5</ele>
        <time>2013-05-05T09:21:08Z</time>
      </trkpt>
      <trkpt lat="45.72919" lon="5.65024">
        <ele>326.90002441406</ele>
        <time>2013-05-05T09:21:38Z</time>
      </trkpt>
      <trkpt lat="45.7296" lon="5.65008">
        <ele>332.29998779297</ele>
        <time>2013-05-05T09:22:09Z</time>
      </trkpt>
      <trkpt lat="45.73014" lon="5.64976">
        <ele>339.5</ele>
        <time>2013-05-05T09:22:41Z</time>
      </trkpt>
      <trkpt lat="45.73051" lon="5.64939">
        <ele>342.29998779297</ele>
        <time>2013-05-05T09:23:09Z</time>
      </trkpt>
      <trkpt lat="45.7308" lon="5.64896">
        <ele>345.90002441406</ele>
        <time>2013-05-05T09:23:40Z</time>
      </trkpt>
      <trkpt lat="45.73124" lon="5.64913">
        <ele>341.90002441406</ele>
        <time>2013-05-05T09:24:12Z</time>
      </trkpt>
      <trkpt lat="45.73167" lon="5.64912">
        <ele>342.20001220703</ele>
        <time>2013-05-05T09:24:45Z</time>
      </trkpt>
      <trkpt lat="45.73202" lon="5.64907">
        <ele>337.59997558594</ele>
        <time>2013-05-05T09:25:13Z</time>
      </trkpt>
      <trkpt lat="45.73243" lon="5.64894">
        <ele>334.5</ele>
        <time>2013-05-05T09:25:43Z</time>
      </trkpt>
      <trkpt lat="45.73289" lon="5.64878">
        <ele>339.29998779297</ele>
        <time>2013-05-05T09:26:16Z</time>
      </trkpt>
      <trkpt lat="45.73318" lon="5.64867">
        <ele>347.5</ele>
        <time>2013-05-05T09:26:42Z</time>
      </trkpt>
      <trkpt lat="45.73356" lon="5.64827">
        <ele>349.5</ele>
        <time>2013-05-05T09:27:17Z</time>
      </trkpt>
      <trkpt lat="45.73405" lon="5.64827">
        <ele>345</ele>
        <time>2013-05-05T09:27:50Z</time>
      </trkpt>
      <trkpt lat="45.73451" lon="5.64822">
        <ele>347.09997558594</ele>
        <time>2013-05-05T09:28:21Z</time>
      </trkpt>
      <trkpt lat="45.73492" lon="5.64824">
        <ele>345.70001220703</ele>
        <time>2013-05-05T09:28:46Z</time>
      </trkpt>
      <trkpt lat="45.73538" lon="5.6484">
        <ele>348.5</ele>
        <time>2013-05-05T09:29:20Z</time>
      </trkpt>
      <trkpt lat="45.73595" lon="5.6481">
        <ele>344.79998779297</ele>
        <time>2013-05-05T09:29:49Z</time>
      </trkpt>
      <trkpt lat="45.73639" lon="5.6482">
        <ele>346.70001220703</ele>
        <time>2013-05-05T09:30:24Z</time>
      </trkpt>
      <trkpt lat="45.73685" lon="5.6483">
        <ele>348.5</ele>
        <time>2013-05-05T09:30:56Z</time>
      </trkpt>
      <trkpt lat="45.73729" lon="5.64839">
        <ele>342.90002441406</ele>
        <time>2013-05-05T09:31:29Z</time>
      </trkpt>
      <trkpt lat="45.73776" lon="5.64852">
        <ele>350.20001220703</ele>
        <time>2013-05-05T09:32:03Z</time>
      </trkpt>
      <trkpt lat="45.73808" lon="5.64857">
        <ele>346.70001220703</ele>
        <time>2013-05-05T09:32:28Z</time>
      </trkpt>
      <trkpt lat="45.73849" lon="5.64866">
        <ele>344.79998779297</ele>
        <time>2013-05-05T09:33:01Z</time>
      </trkpt>
      <trkpt lat="45.73883" lon="5.64892">
        <ele>343.40002441406</ele>
        <time>2013-05-05T09:33:34Z</time>
      </trkpt>
      <trkpt lat="45.73922" lon="5.64899">
        <ele>338.20001220703</ele>
        <time>2013-05-05T09:34:08Z</time>
      </trkpt>
      <trkpt lat="45.73971" lon="5.64905">
        <ele>336.59997558594</ele>
        <time>2013-05-05T09:34:40Z</time>
      </trkpt>
      <trkpt lat="45.74046" lon="5.649">
        <ele>337.90002441406</ele>
        <time>2013-05-05T09:35:13Z</time>
      </trkpt>
      <trkpt lat="45.74088" lon="5.64907">
        <ele>331.09997558594</ele>
        <time>2013-05-05T09:35:44Z</time>
      </trkpt>
      <trkpt lat="45.7412" lon="5.64904">
        <ele>322.90002441406</ele>
        <time>2013-05-05T09:36:13Z</time>
      </trkpt>
      <trkpt lat="45.74161" lon="5.64912">
        <ele>321.09997558594</ele>
        <time>2013-05-05T09:36:42Z</time>
      </trkpt>
      <trkpt lat="45.74192" lon="5.64913">
        <ele>318.09997558594</ele>
        <time>2013-05-05T09:37:11Z</time>
      </trkpt>
      <trkpt lat="45.7423" lon="5.64922">
        <ele>316.29998779297</ele>
        <time>2013-05-05T09:37:39Z</time>
      </trkpt>
      <trkpt lat="45.74284" lon="5.64936">
        <ele>324.09997558594</ele>
        <time>2013-05-05T09:38:09Z</time>
      </trkpt>
      <trkpt lat="45.74276" lon="5.64986">
        <ele>305.40002441406</ele>
        <time>2013-05-05T09:38:35Z</time>
      </trkpt>
      <trkpt lat="45.74257" lon="5.64973">
        <ele>314.20001220703</ele>
        <time>2013-05-05T09:39:02Z</time>
      </trkpt>
      <trkpt lat="45.74243" lon="5.6498">
        <ele>308.20001220703</ele>
        <time>2013-05-05T09:39:27Z</time>
      </trkpt>
      <trkpt lat="45.7425" lon="5.6499">
        <ele>303.5</ele>
        <time>2013-05-05T09:40:47Z</time>
      </trkpt>
      <trkpt lat="45.74217" lon="5.64986">
        <ele>307.79998779297</ele>
        <time>2013-05-05T09:41:12Z</time>
      </trkpt>
      <trkpt lat="45.74213" lon="5.65">
        <ele>300.59997558594</ele>
        <time>2013-05-05T09:41:38Z</time>
      </trkpt>
      <trkpt lat="45.74231" lon="5.65024">
        <ele>297.5</ele>
        <time>2013-05-05T09:42:04Z</time>
      </trkpt>
      <trkpt lat="45.74253" lon="5.65049">
        <ele>293.20001220703</ele>
        <time>2013-05-05T09:42:30Z</time>
      </trkpt>
      <trkpt lat="45.74269" lon="5.65095">
        <ele>301</ele>
        <time>2013-05-05T09:42:55Z</time>
      </trkpt>
      <trkpt lat="45.74269" lon="5.65154">
        <ele>289.59997558594</ele>
        <time>2013-05-05T09:43:19Z</time>
      </trkpt>
      <trkpt lat="45.74272" lon="5.65166">
        <ele>281</ele>
        <time>2013-05-05T09:43:44Z</time>
      </trkpt>
      <trkpt lat="45.74265" lon="5.6519">
        <ele>290.20001220703</ele>
        <time>2013-05-05T09:44:35Z</time>
      </trkpt>
      <trkpt lat="45.74265" lon="5.65235">
        <ele>289.70001220703</ele>
        <time>2013-05-05T09:45:00Z</time>
      </trkpt>
      <trkpt lat="45.74267" lon="5.65291">
        <ele>279.20001220703</ele>
        <time>2013-05-05T09:45:24Z</time>
      </trkpt>
      <trkpt lat="45.74271" lon="5.65343">
        <ele>279.79998779297</ele>
        <time>2013-05-05T09:45:47Z</time>
      </trkpt>
      <trkpt lat="45.74267" lon="5.65408">
        <ele>284.90002441406</ele>
        <time>2013-05-05T09:46:11Z</time>
      </trkpt>
      <trkpt lat="45.74262" lon="5.65465">
        <ele>278</ele>
        <time>2013-05-05T09:46:35Z</time>
      </trkpt>
      <trkpt lat="45.74262" lon="5.65504">
        <ele>281.5</ele>
        <time>2013-05-05T09:47:48Z</time>
      </trkpt>
      <trkpt lat="45.74256" lon="5.6555">
        <ele>280.79998779297</ele>
        <time>2013-05-05T09:48:13Z</time>
      </trkpt>
      <trkpt lat="45.74244" lon="5.6559">
        <ele>270</ele>
        <time>2013-05-05T09:48:35Z</time>
      </trkpt>
      <trkpt lat="45.74235" lon="5.65645">
        <ele>277.59997558594</ele>
        <time>2013-05-05T09:48:59Z</time>
      </trkpt>
      <trkpt lat="45.74223" lon="5.6569">
        <ele>278</ele>
        <time>2013-05-05T09:49:22Z</time>
      </trkpt>
      <trkpt lat="45.74189" lon="5.65708">
        <ele>277.5</ele>
        <time>2013-05-05T09:49:46Z</time>
      </trkpt>
      <trkpt lat="45.74156" lon="5.65734">
        <ele>272.70001220703</ele>
        <time>2013-05-05T09:50:09Z</time>
      </trkpt>
      <trkpt lat="45.74124" lon="5.65762">
        <ele>274.29998779297</ele>
        <time>2013-05-05T09:50:33Z</time>
      </trkpt>
      <trkpt lat="45.74094" lon="5.65787">
        <ele>275.59997558594</ele>
        <time>2013-05-05T09:50:57Z</time>
      </trkpt>
      <trkpt lat="45.74097" lon="5.65821">
        <ele>276.79998779297</ele>
        <time>2013-05-05T09:51:22Z</time>
      </trkpt>
      <trkpt lat="45.74061" lon="5.65848">
        <ele>272.79998779297</ele>
        <time>2013-05-05T09:51:46Z</time>
      </trkpt>
      <trkpt lat="45.74044" lon="5.65905">
        <ele>281.79998779297</ele>
        <time>2013-05-05T09:52:11Z</time>
      </trkpt>
      <trkpt lat="45.74041" lon="5.65949">
        <ele>284.09997558594</ele>
        <time>2013-05-05T09:52:36Z</time>
      </trkpt>
      <trkpt lat="45.74035" lon="5.65999">
        <ele>277.5</ele>
        <time>2013-05-05T09:52:59Z</time>
      </trkpt>
      <trkpt lat="45.74047" lon="5.6605">
        <ele>286.70001220703</ele>
        <time>2013-05-05T09:53:23Z</time>
      </trkpt>
      <trkpt lat="45.74081" lon="5.66082">
        <ele>299.59997558594</ele>
        <time>2013-05-05T09:53:49Z</time>
      </trkpt>
      <trkpt lat="45.74105" lon="5.66126">
        <ele>287.79998779297</ele>
        <time>2013-05-05T09:54:13Z</time>
      </trkpt>
      <trkpt lat="45.74141" lon="5.66144">
        <ele>286.90002441406</ele>
        <time>2013-05-05T09:54:38Z</time>
      </trkpt>
      <trkpt lat="45.7417" lon="5.66164">
        <ele>281.5</ele>
        <time>2013-05-05T09:55:02Z</time>
      </trkpt>
      <trkpt lat="45.74217" lon="5.662">
        <ele>298.09997558594</ele>
        <time>2013-05-05T09:55:27Z</time>
      </trkpt>
      <trkpt lat="45.74253" lon="5.66218">
        <ele>299.59997558594</ele>
        <time>2013-05-05T09:55:52Z</time>
      </trkpt>
      <trkpt lat="45.74273" lon="5.66246">
        <ele>299.29998779297</ele>
        <time>2013-05-05T09:56:17Z</time>
      </trkpt>
      <trkpt lat="45.74303" lon="5.66265">
        <ele>285.5</ele>
        <time>2013-05-05T09:56:41Z</time>
      </trkpt>
      <trkpt lat="45.74353" lon="5.66262">
        <ele>283.59997558594</ele>
        <time>2013-05-05T09:57:05Z</time>
      </trkpt>
      <trkpt lat="45.74401" lon="5.66266">
        <ele>269.59997558594</ele>
        <time>2013-05-05T09:57:27Z</time>
      </trkpt>
      <trkpt lat="45.74433" lon="5.66267">
        <ele>275.40002441406</ele>
        <time>2013-05-05T09:57:51Z</time>
      </trkpt>
      <trkpt lat="45.74469" lon="5.66256">
        <ele>283.40002441406</ele>
        <time>2013-05-05T09:58:15Z</time>
      </trkpt>
      <trkpt lat="45.74498" lon="5.66242">
        <ele>271.79998779297</ele>
        <time>2013-05-05T09:58:38Z</time>
      </trkpt>
      <trkpt lat="45.74519" lon="5.66238">
        <ele>259.79998779297</ele>
        <time>2013-05-05T09:59:02Z</time>
      </trkpt>
      <trkpt lat="45.74565" lon="5.66244">
        <ele>272.70001220703</ele>
        <time>2013-05-05T09:59:26Z</time>
      </trkpt>
      <trkpt lat="45.74587" lon="5.66247">
        <ele>269.40002441406</ele>
        <time>2013-05-05T09:59:48Z</time>
      </trkpt>
      <trkpt lat="45.74614" lon="5.66254">
        <ele>279.79998779297</ele>
        <time>2013-05-05T10:00:12Z</time>
      </trkpt>
      <trkpt lat="45.74678" lon="5.66241">
        <ele>288.40002441406</ele>
        <time>2013-05-05T10:00:37Z</time>
      </trkpt>
      <trkpt lat="45.74718" lon="5.66225">
        <ele>290.5</ele>
        <time>2013-05-05T10:01:02Z</time>
      </trkpt>
      <trkpt lat="45.74751" lon="5.66219">
        <ele>287.29998779297</ele>
        <time>2013-05-05T10:01:26Z</time>
      </trkpt>
      <trkpt lat="45.7476" lon="5.66207">
        <ele>279.79998779297</ele>
        <time>2013-05-05T10:01:50Z</time>
      </trkpt>
      <trkpt lat="45.74794" lon="5.66185">
        <ele>262</ele>
        <time>2013-05-05T10:02:12Z</time>
      </trkpt>
      <trkpt lat="45.74875" lon="5.66153">
        <ele>264.70001220703</ele>
        <time>2013-05-05T10:02:35Z</time>
      </trkpt>
      <trkpt lat="45.749" lon="5.66137">
        <ele>272.29998779297</ele>
        <time>2013-05-05T10:02:59Z</time>
      </trkpt>
      <trkpt lat="45.74933" lon="5.66129">
        <ele>271.5</ele>
        <time>2013-05-05T10:03:23Z</time>
      </trkpt>
      <trkpt lat="45.74964" lon="5.66112">
        <ele>280.70001220703</ele>
        <time>2013-05-05T10:03:48Z</time>
      </trkpt>
      <trkpt lat="45.74993" lon="5.66092">
        <ele>282.20001220703</ele>
        <time>2013-05-05T10:04:12Z</time>
      </trkpt>
      <trkpt lat="45.75023" lon="5.66073">
        <ele>285.20001220703</ele>
        <time>2013-05-05T10:04:37Z</time>
      </trkpt>
      <trkpt lat="45.75057" lon="5.66062">
        <ele>285.29998779297</ele>
        <time>2013-05-05T10:05:01Z</time>
      </trkpt>
      <trkpt lat="45.75093" lon="5.66054">
        <ele>284.40002441406</ele>
        <time>2013-05-05T10:05:25Z</time>
      </trkpt>
      <trkpt lat="45.75176" lon="5.66077">
        <ele>277</ele>
        <time>2013-05-05T10:05:48Z</time>
      </trkpt>
      <trkpt lat="45.7521" lon="5.66099">
        <ele>279.59997558594</ele>
        <time>2013-05-05T10:06:11Z</time>
      </trkpt>
      <trkpt lat="45.75243" lon="5.66115">
        <ele>284.29998779297</ele>
        <time>2013-05-05T10:06:36Z</time>
      </trkpt>
      <trkpt lat="45.75276" lon="5.66131">
        <ele>282.79998779297</ele>
        <time>2013-05-05T10:07:00Z</time>
      </trkpt>
      <trkpt lat="45.75325" lon="5.6614">
        <ele>286.20001220703</ele>
        <time>2013-05-05T10:07:24Z</time>
      </trkpt>
      <trkpt lat="45.75424" lon="5.66155">
        <ele>280.90002441406</ele>
        <time>2013-05-05T10:07:49Z</time>
      </trkpt>
      <trkpt lat="45.75501" lon="5.66164">
        <ele>278.20001220703</ele>
        <time>2013-05-05T10:08:12Z</time>
      </trkpt>
      <trkpt lat="45.75553" lon="5.66163">
        <ele>278.40002441406</ele>
        <time>2013-05-05T10:08:35Z</time>
      </trkpt>
      <trkpt lat="45.75578" lon="5.66161">
        <ele>280.09997558594</ele>
        <time>2013-05-05T10:09:00Z</time>
      </trkpt>
      <trkpt lat="45.75616" lon="5.66153">
        <ele>279.09997558594</ele>
        <time>2013-05-05T10:09:23Z</time>
      </trkpt>
      <trkpt lat="45.75655" lon="5.66141">
        <ele>282.40002441406</ele>
        <time>2013-05-05T10:09:48Z</time>
      </trkpt>
      <trkpt lat="45.75681" lon="5.66145">
        <ele>284.09997558594</ele>
        <time>2013-05-05T10:10:12Z</time>
      </trkpt>
      <trkpt lat="45.75715" lon="5.66132">
        <ele>290.79998779297</ele>
        <time>2013-05-05T10:10:37Z</time>
      </trkpt>
      <trkpt lat="45.75757" lon="5.66129">
        <ele>282.29998779297</ele>
        <time>2013-05-05T10:11:02Z</time>
      </trkpt>
      <trkpt lat="45.75797" lon="5.66118">
        <ele>279.09997558594</ele>
        <time>2013-05-05T10:11:26Z</time>
      </trkpt>
      <trkpt lat="45.75841" lon="5.66069">
        <ele>271.79998779297</ele>
        <time>2013-05-05T10:11:49Z</time>
      </trkpt>
      <trkpt lat="45.75878" lon="5.6604">
        <ele>288.59997558594</ele>
        <time>2013-05-05T10:12:14Z</time>
      </trkpt>
      <trkpt lat="45.75906" lon="5.66016">
        <ele>273.40002441406</ele>
        <time>2013-05-05T10:12:39Z</time>
      </trkpt>
      <trkpt lat="45.75945" lon="5.65998">
        <ele>281</ele>
        <time>2013-05-05T10:13:03Z</time>
      </trkpt>
      <trkpt lat="45.75985" lon="5.6601">
        <ele>282.90002441406</ele>
        <time>2013-05-05T10:13:27Z</time>
      </trkpt>
      <trkpt lat="45.75993" lon="5.66066">
        <ele>275.09997558594</ele>
        <time>2013-05-05T10:13:50Z</time>
      </trkpt>
      <trkpt lat="45.75999" lon="5.66123">
        <ele>273.59997558594</ele>
        <time>2013-05-05T10:14:14Z</time>
      </trkpt>
      <trkpt lat="45.76016" lon="5.66172">
        <ele>270.59997558594</ele>
        <time>2013-05-05T10:14:38Z</time>
      </trkpt>
      <trkpt lat="45.76038" lon="5.66232">
        <ele>297.29998779297</ele>
        <time>2013-05-05T10:15:04Z</time>
      </trkpt>
      <trkpt lat="45.76066" lon="5.66268">
        <ele>277.40002441406</ele>
        <time>2013-05-05T10:15:28Z</time>
      </trkpt>
      <trkpt lat="45.76092" lon="5.66304">
        <ele>278.40002441406</ele>
        <time>2013-05-05T10:15:53Z</time>
      </trkpt>
      <trkpt lat="45.76124" lon="5.6632">
        <ele>279.79998779297</ele>
        <time>2013-05-05T10:16:17Z</time>
      </trkpt>
      <trkpt lat="45.76138" lon="5.66335">
        <ele>287.40002441406</ele>
        <time>2013-05-05T10:16:42Z</time>
      </trkpt>
      <trkpt lat="45.76163" lon="5.66327">
        <ele>291</ele>
        <time>2013-05-05T10:17:07Z</time>
      </trkpt>
      <trkpt lat="45.76217" lon="5.66285">
        <ele>278.59997558594</ele>
        <time>2013-05-05T10:17:33Z</time>
      </trkpt>
      <trkpt lat="45.763" lon="5.66295">
        <ele>286.09997558594</ele>
        <time>2013-05-05T10:17:57Z</time>
      </trkpt>
      <trkpt lat="45.7639" lon="5.66279">
        <ele>294.20001220703</ele>
        <time>2013-05-05T10:18:21Z</time>
      </trkpt>
      <trkpt lat="45.76483" lon="5.66258">
        <ele>276.70001220703</ele>
        <time>2013-05-05T10:18:46Z</time>
      </trkpt>
      <trkpt lat="45.76576" lon="5.66249">
        <ele>276.5</ele>
        <time>2013-05-05T10:19:10Z</time>
      </trkpt>
      <trkpt lat="45.76591" lon="5.66299">
        <ele>309.70001220703</ele>
        <time>2013-05-05T10:19:36Z</time>
      </trkpt>
      <trkpt lat="45.76559" lon="5.66296">
        <ele>310.59997558594</ele>
        <time>2013-05-05T10:20:03Z</time>
      </trkpt>
      <trkpt lat="45.76523" lon="5.66306">
        <ele>289.20001220703</ele>
        <time>2013-05-05T10:20:27Z</time>
      </trkpt>
      <trkpt lat="45.76474" lon="5.66329">
        <ele>315.40002441406</ele>
        <time>2013-05-05T10:20:56Z</time>
      </trkpt>
      <trkpt lat="45.7645" lon="5.6634">
        <ele>309.90002441406</ele>
        <time>2013-05-05T10:21:22Z</time>
      </trkpt>
      <trkpt lat="45.76395" lon="5.66375">
        <ele>314.5</ele>
        <time>2013-05-05T10:21:50Z</time>
      </trkpt>
      <trkpt lat="45.76436" lon="5.66372">
        <ele>309.90002441406</ele>
        <time>2013-05-05T10:22:18Z</time>
      </trkpt>
      <trkpt lat="45.76458" lon="5.66361">
        <ele>318.20001220703</ele>
        <time>2013-05-05T10:22:46Z</time>
      </trkpt>
      <trkpt lat="45.76523" lon="5.66405">
        <ele>303.40002441406</ele>
        <time>2013-05-05T10:23:17Z</time>
      </trkpt>
      <trkpt lat="45.76541" lon="5.66411">
        <ele>293.09997558594</ele>
        <time>2013-05-05T10:23:43Z</time>
      </trkpt>
      <trkpt lat="45.76578" lon="5.66417">
        <ele>286.09997558594</ele>
        <time>2013-05-05T10:24:13Z</time>
      </trkpt>
      <trkpt lat="45.76611" lon="5.66416">
        <ele>285.09997558594</ele>
        <time>2013-05-05T10:24:37Z</time>
      </trkpt>
      <trkpt lat="45.76654" lon="5.66459">
        <ele>315.79998779297</ele>
        <time>2013-05-05T10:25:06Z</time>
      </trkpt>
      <trkpt lat="45.76661" lon="5.6651">
        <ele>314.90002441406</ele>
        <time>2013-05-05T10:25:34Z</time>
      </trkpt>
      <trkpt lat="45.76672" lon="5.66573">
        <ele>311.79998779297</ele>
        <time>2013-05-05T10:26:01Z</time>
      </trkpt>
      <trkpt lat="45.76664" lon="5.66641">
        <ele>326.29998779297</ele>
        <time>2013-05-05T10:26:31Z</time>
      </trkpt>
      <trkpt lat="45.76648" lon="5.6669">
        <ele>319</ele>
        <time>2013-05-05T10:26:59Z</time>
      </trkpt>
      <trkpt lat="45.76618" lon="5.66775">
        <ele>334.90002441406</ele>
        <time>2013-05-05T10:27:31Z</time>
      </trkpt>
      <trkpt lat="45.76612" lon="5.66837">
        <ele>337.59997558594</ele>
        <time>2013-05-05T10:28:04Z</time>
      </trkpt>
      <trkpt lat="45.76602" lon="5.6689">
        <ele>335.40002441406</ele>
        <time>2013-05-05T10:28:29Z</time>
      </trkpt>
      <trkpt lat="45.76589" lon="5.66963">
        <ele>339.5</ele>
        <time>2013-05-05T10:29:02Z</time>
      </trkpt>
      <trkpt lat="45.76595" lon="5.67019">
        <ele>338.90002441406</ele>
        <time>2013-05-05T10:29:29Z</time>
      </trkpt>
      <trkpt lat="45.7658" lon="5.67066">
        <ele>347.09997558594</ele>
        <time>2013-05-05T10:29:58Z</time>
      </trkpt>
      <trkpt lat="45.76596" lon="5.67101">
        <ele>350.79998779297</ele>
        <time>2013-05-05T10:30:20Z</time>
      </trkpt>
      <trkpt lat="45.76612" lon="5.67156">
        <ele>351.29998779297</ele>
        <time>2013-05-05T10:30:54Z</time>
      </trkpt>
      <trkpt lat="45.76625" lon="5.67219">
        <ele>354.70001220703</ele>
        <time>2013-05-05T10:31:22Z</time>
      </trkpt>
      <trkpt lat="45.76647" lon="5.67265">
        <ele>360.90002441406</ele>
        <time>2013-05-05T10:31:51Z</time>
      </trkpt>
      <trkpt lat="45.76669" lon="5.673">
        <ele>361.29998779297</ele>
        <time>2013-05-05T10:32:14Z</time>
      </trkpt>
      <trkpt lat="45.76686" lon="5.67331">
        <ele>361.59997558594</ele>
        <time>2013-05-05T10:32:35Z</time>
      </trkpt>
      <trkpt lat="45.76705" lon="5.67359">
        <ele>366</ele>
        <time>2013-05-05T10:32:56Z</time>
      </trkpt>
      <trkpt lat="45.76726" lon="5.67399">
        <ele>354.70001220703</ele>
        <time>2013-05-05T10:33:18Z</time>
      </trkpt>
      <trkpt lat="45.76759" lon="5.67434">
        <ele>358</ele>
        <time>2013-05-05T10:33:39Z</time>
      </trkpt>
      <trkpt lat="45.76783" lon="5.67478">
        <ele>363</ele>
        <time>2013-05-05T10:34:02Z</time>
      </trkpt>
      <trkpt lat="45.76799" lon="5.67522">
        <ele>367.5</ele>
        <time>2013-05-05T10:34:26Z</time>
      </trkpt>
      <trkpt lat="45.76821" lon="5.67547">
        <ele>357.5</ele>
        <time>2013-05-05T10:34:48Z</time>
      </trkpt>
      <trkpt lat="45.76846" lon="5.67579">
        <ele>363.79998779297</ele>
        <time>2013-05-05T10:35:09Z</time>
      </trkpt>
      <trkpt lat="45.7687" lon="5.67612">
        <ele>361.59997558594</ele>
        <time>2013-05-05T10:35:30Z</time>
      </trkpt>
      <trkpt lat="45.76869" lon="5.67655">
        <ele>355.79998779297</ele>
        <time>2013-05-05T10:35:52Z</time>
      </trkpt>
      <trkpt lat="45.76846" lon="5.677">
        <ele>370.29998779297</ele>
        <time>2013-05-05T10:36:14Z</time>
      </trkpt>
      <trkpt lat="45.76834" lon="5.67719">
        <ele>363.20001220703</ele>
        <time>2013-05-05T10:36:36Z</time>
      </trkpt>
      <trkpt lat="45.76813" lon="5.67758">
        <ele>360.59997558594</ele>
        <time>2013-05-05T10:36:58Z</time>
      </trkpt>
      <trkpt lat="45.76798" lon="5.67805">
        <ele>375.20001220703</ele>
        <time>2013-05-05T10:37:20Z</time>
      </trkpt>
      <trkpt lat="45.76778" lon="5.67844">
        <ele>370.09997558594</ele>
        <time>2013-05-05T10:37:42Z</time>
      </trkpt>
      <trkpt lat="45.76763" lon="5.6788">
        <ele>368.70001220703</ele>
        <time>2013-05-05T10:38:03Z</time>
      </trkpt>
      <trkpt lat="45.76749" lon="5.6791">
        <ele>366</ele>
        <time>2013-05-05T10:38:24Z</time>
      </trkpt>
      <trkpt lat="45.76728" lon="5.67958">
        <ele>376</ele>
        <time>2013-05-05T10:38:46Z</time>
      </trkpt>
      <trkpt lat="45.7671" lon="5.67995">
        <ele>371.90002441406</ele>
        <time>2013-05-05T10:39:09Z</time>
      </trkpt>
      <trkpt lat="45.7668" lon="5.68046">
        <ele>360.90002441406</ele>
        <time>2013-05-05T10:39:31Z</time>
      </trkpt>
      <trkpt lat="45.76664" lon="5.68087">
        <ele>365.70001220703</ele>
        <time>2013-05-05T10:39:52Z</time>
      </trkpt>
      <trkpt lat="45.76649" lon="5.68118">
        <ele>360.59997558594</ele>
        <time>2013-05-05T10:40:14Z</time>
      </trkpt>
      <trkpt lat="45.76626" lon="5.68166">
        <ele>373.40002441406</ele>
        <time>2013-05-05T10:40:36Z</time>
      </trkpt>
      <trkpt lat="45.76597" lon="5.68218">
        <ele>371.5</ele>
        <time>2013-05-05T10:40:58Z</time>
      </trkpt>
      <trkpt lat="45.7656" lon="5.68254">
        <ele>388.5</ele>
        <time>2013-05-05T10:41:33Z</time>
      </trkpt>
      <trkpt lat="45.7653" lon="5.68228">
        <ele>389.29998779297</ele>
        <time>2013-05-05T10:41:56Z</time>
      </trkpt>
      <trkpt lat="45.76499" lon="5.68202">
        <ele>388.70001220703</ele>
        <time>2013-05-05T10:42:20Z</time>
      </trkpt>
      <trkpt lat="45.76473" lon="5.68171">
        <ele>386.70001220703</ele>
        <time>2013-05-05T10:42:44Z</time>
      </trkpt>
      <trkpt lat="45.76461" lon="5.68188">
        <ele>376.5</ele>
        <time>2013-05-05T10:45:44Z</time>
      </trkpt>
      <trkpt lat="45.76451" lon="5.68208">
        <ele>382.29998779297</ele>
        <time>2013-05-05T10:46:05Z</time>
      </trkpt>
      <trkpt lat="45.7642" lon="5.68186">
        <ele>386.5</ele>
        <time>2013-05-05T10:46:48Z</time>
      </trkpt>
      <trkpt lat="45.76409" lon="5.682">
        <ele>384.20001220703</ele>
        <time>2013-05-05T10:47:32Z</time>
      </trkpt>
      <trkpt lat="45.7642" lon="5.68224">
        <ele>379.90002441406</ele>
        <time>2013-05-05T10:48:05Z</time>
      </trkpt>
      <trkpt lat="45.76435" lon="5.68263">
        <ele>379</ele>
        <time>2013-05-05T10:48:37Z</time>
      </trkpt>
      <trkpt lat="45.76446" lon="5.68276">
        <ele>383.70001220703</ele>
        <time>2013-05-05T10:49:29Z</time>
      </trkpt>
      <trkpt lat="45.76455" lon="5.68284">
        <ele>378.70001220703</ele>
        <time>2013-05-05T10:50:15Z</time>
      </trkpt>
      <trkpt lat="45.76532" lon="5.68378">
        <ele>390.09997558594</ele>
        <time>2013-05-05T13:06:55Z</time>
      </trkpt>
      <trkpt lat="45.76557" lon="5.68388">
        <ele>388.5</ele>
        <time>2013-05-05T13:07:39Z</time>
      </trkpt>
      <trkpt lat="45.76571" lon="5.68373">
        <ele>386.70001220703</ele>
        <time>2013-05-05T13:08:47Z</time>
      </trkpt>
      <trkpt lat="45.76605" lon="5.6834">
        <ele>383.29998779297</ele>
        <time>2013-05-05T13:09:21Z</time>
      </trkpt>
      <trkpt lat="45.76662" lon="5.68373">
        <ele>396.79998779297</ele>
        <time>2013-05-05T13:10:07Z</time>
      </trkpt>
      <trkpt lat="45.76702" lon="5.68386">
        <ele>389.70001220703</ele>
        <time>2013-05-05T13:10:41Z</time>
      </trkpt>
      <trkpt lat="45.76753" lon="5.68399">
        <ele>386.29998779297</ele>
        <time>2013-05-05T13:11:22Z</time>
      </trkpt>
      <trkpt lat="45.76797" lon="5.68384">
        <ele>379.5</ele>
        <time>2013-05-05T13:12:03Z</time>
      </trkpt>
      <trkpt lat="45.7684" lon="5.68337">
        <ele>384.90002441406</ele>
        <time>2013-05-05T13:12:43Z</time>
      </trkpt>
      <trkpt lat="45.76891" lon="5.68315">
        <ele>382.5</ele>
        <time>2013-05-05T13:13:24Z</time>
      </trkpt>
      <trkpt lat="45.76941" lon="5.68318">
        <ele>369.09997558594</ele>
        <time>2013-05-05T13:14:03Z</time>
      </trkpt>
      <trkpt lat="45.76985" lon="5.68305">
        <ele>378.40002441406</ele>
        <time>2013-05-05T13:14:43Z</time>
      </trkpt>
      <trkpt lat="45.77022" lon="5.68224">
        <ele>408.79998779297</ele>
        <time>2013-05-05T13:15:28Z</time>
      </trkpt>
      <trkpt lat="45.77072" lon="5.68223">
        <ele>381.29998779297</ele>
        <time>2013-05-05T13:16:00Z</time>
      </trkpt>
      <trkpt lat="45.7722" lon="5.68249">
        <ele>390.90002441406</ele>
        <time>2013-05-05T13:16:35Z</time>
      </trkpt>
      <trkpt lat="45.77231" lon="5.68258">
        <ele>384.40002441406</ele>
        <time>2013-05-05T13:19:48Z</time>
      </trkpt>
      <trkpt lat="45.77247" lon="5.68261">
        <ele>387.20001220703</ele>
        <time>2013-05-05T13:20:33Z</time>
      </trkpt>
      <trkpt lat="45.77279" lon="5.68254">
        <ele>384.59997558594</ele>
        <time>2013-05-05T13:20:54Z</time>
      </trkpt>
      <trkpt lat="45.77288" lon="5.6821">
        <ele>375</ele>
        <time>2013-05-05T13:21:18Z</time>
      </trkpt>
      <trkpt lat="45.77299" lon="5.6817">
        <ele>370.59997558594</ele>
        <time>2013-05-05T13:21:41Z</time>
      </trkpt>
      <trkpt lat="45.77318" lon="5.68133">
        <ele>381.59997558594</ele>
        <time>2013-05-05T13:22:03Z</time>
      </trkpt>
      <trkpt lat="45.77322" lon="5.68092">
        <ele>374.29998779297</ele>
        <time>2013-05-05T13:22:26Z</time>
      </trkpt>
      <trkpt lat="45.77327" lon="5.68047">
        <ele>377.70001220703</ele>
        <time>2013-05-05T13:22:50Z</time>
      </trkpt>
      <trkpt lat="45.77344" lon="5.68009">
        <ele>365.09997558594</ele>
        <time>2013-05-05T13:23:11Z</time>
      </trkpt>
      <trkpt lat="45.77361" lon="5.68005">
        <ele>364.90002441406</ele>
        <time>2013-05-05T13:23:32Z</time>
      </trkpt>
      <trkpt lat="45.77405" lon="5.67965">
        <ele>367.59997558594</ele>
        <time>2013-05-05T13:23:56Z</time>
      </trkpt>
      <trkpt lat="45.77414" lon="5.67982">
        <ele>373.20001220703</ele>
        <time>2013-05-05T13:24:15Z</time>
      </trkpt>
      <trkpt lat="45.7743" lon="5.68013">
        <ele>360.59997558594</ele>
        <time>2013-05-05T13:24:39Z</time>
      </trkpt>
      <trkpt lat="45.77448" lon="5.68031">
        <ele>367.70001220703</ele>
        <time>2013-05-05T13:25:04Z</time>
      </trkpt>
      <trkpt lat="45.77475" lon="5.68054">
        <ele>368.20001220703</ele>
        <time>2013-05-05T13:25:28Z</time>
      </trkpt>
      <trkpt lat="45.77484" lon="5.68078">
        <ele>361.59997558594</ele>
        <time>2013-05-05T13:25:49Z</time>
      </trkpt>
      <trkpt lat="45.77502" lon="5.68109">
        <ele>350.5</ele>
        <time>2013-05-05T13:26:11Z</time>
      </trkpt>
      <trkpt lat="45.77512" lon="5.68114">
        <ele>351.70001220703</ele>
        <time>2013-05-05T13:26:32Z</time>
      </trkpt>
      <trkpt lat="45.77522" lon="5.68138">
        <ele>353.5</ele>
        <time>2013-05-05T13:26:54Z</time>
      </trkpt>
      <trkpt lat="45.77516" lon="5.68159">
        <ele>349.29998779297</ele>
        <time>2013-05-05T13:27:15Z</time>
      </trkpt>
      <trkpt lat="45.77526" lon="5.68182">
        <ele>348.40002441406</ele>
        <time>2013-05-05T13:27:36Z</time>
      </trkpt>
      <trkpt lat="45.77538" lon="5.68199">
        <ele>333.70001220703</ele>
        <time>2013-05-05T13:27:58Z</time>
      </trkpt>
      <trkpt lat="45.77547" lon="5.6821">
        <ele>319.40002441406</ele>
        <time>2013-05-05T13:28:15Z</time>
      </trkpt>
      <trkpt lat="45.77569" lon="5.68219">
        <ele>313.20001220703</ele>
        <time>2013-05-05T13:28:37Z</time>
      </trkpt>
      <trkpt lat="45.77604" lon="5.68245">
        <ele>306.09997558594</ele>
        <time>2013-05-05T13:28:58Z</time>
      </trkpt>
      <trkpt lat="45.776" lon="5.68288">
        <ele>308.40002441406</ele>
        <time>2013-05-05T13:29:19Z</time>
      </trkpt>
      <trkpt lat="45.77594" lon="5.68316">
        <ele>317.20001220703</ele>
        <time>2013-05-05T13:29:40Z</time>
      </trkpt>
      <trkpt lat="45.77582" lon="5.68368">
        <ele>319</ele>
        <time>2013-05-05T13:30:02Z</time>
      </trkpt>
      <trkpt lat="45.7758" lon="5.68432">
        <ele>316.79998779297</ele>
        <time>2013-05-05T13:30:25Z</time>
      </trkpt>
      <trkpt lat="45.7757" lon="5.68471">
        <ele>316.59997558594</ele>
        <time>2013-05-05T13:30:49Z</time>
      </trkpt>
      <trkpt lat="45.77566" lon="5.68519">
        <ele>327</ele>
        <time>2013-05-05T13:31:10Z</time>
      </trkpt>
      <trkpt lat="45.77572" lon="5.68565">
        <ele>331.40002441406</ele>
        <time>2013-05-05T13:31:31Z</time>
      </trkpt>
      <trkpt lat="45.7756" lon="5.68594">
        <ele>330.59997558594</ele>
        <time>2013-05-05T13:31:51Z</time>
      </trkpt>
      <trkpt lat="45.77538" lon="5.68627">
        <ele>334.59997558594</ele>
        <time>2013-05-05T13:32:13Z</time>
      </trkpt>
      <trkpt lat="45.77537" lon="5.68667">
        <ele>337.29998779297</ele>
        <time>2013-05-05T13:32:37Z</time>
      </trkpt>
      <trkpt lat="45.77531" lon="5.68711">
        <ele>287.40002441406</ele>
        <time>2013-05-05T13:32:58Z</time>
      </trkpt>
      <trkpt lat="45.77543" lon="5.68733">
        <ele>293.09997558594</ele>
        <time>2013-05-05T13:33:19Z</time>
      </trkpt>
      <trkpt lat="45.77554" lon="5.68762">
        <ele>296.79998779297</ele>
        <time>2013-05-05T13:33:39Z</time>
      </trkpt>
      <trkpt lat="45.77572" lon="5.68847">
        <ele>290.79998779297</ele>
        <time>2013-05-05T13:34:01Z</time>
      </trkpt>
      <trkpt lat="45.77593" lon="5.68915">
        <ele>311.40002441406</ele>
        <time>2013-05-05T13:34:23Z</time>
      </trkpt>
      <trkpt lat="45.77607" lon="5.68974">
        <ele>305.5</ele>
        <time>2013-05-05T13:34:45Z</time>
      </trkpt>
      <trkpt lat="45.77617" lon="5.69004">
        <ele>284.59997558594</ele>
        <time>2013-05-05T13:35:07Z</time>
      </trkpt>
      <trkpt lat="45.77646" lon="5.6899">
        <ele>269.40002441406</ele>
        <time>2013-05-05T13:35:28Z</time>
      </trkpt>
      <trkpt lat="45.77664" lon="5.69008">
        <ele>275.5</ele>
        <time>2013-05-05T13:35:49Z</time>
      </trkpt>
      <trkpt lat="45.7769" lon="5.69038">
        <ele>281.40002441406</ele>
        <time>2013-05-05T13:36:09Z</time>
      </trkpt>
      <trkpt lat="45.77708" lon="5.69051">
        <ele>278.20001220703</ele>
        <time>2013-05-05T13:36:31Z</time>
      </trkpt>
      <trkpt lat="45.77735" lon="5.69034">
        <ele>274.09997558594</ele>
        <time>2013-05-05T13:36:53Z</time>
      </trkpt>
      <trkpt lat="45.77762" lon="5.69013">
        <ele>275.79998779297</ele>
        <time>2013-05-05T13:37:15Z</time>
      </trkpt>
      <trkpt lat="45.778" lon="5.68992">
        <ele>286</ele>
        <time>2013-05-05T13:37:36Z</time>
      </trkpt>
      <trkpt lat="45.77826" lon="5.68976">
        <ele>293.20001220703</ele>
        <time>2013-05-05T13:38:00Z</time>
      </trkpt>
      <trkpt lat="45.77848" lon="5.69003">
        <ele>293.20001220703</ele>
        <time>2013-05-05T13:38:21Z</time>
      </trkpt>
      <trkpt lat="45.77843" lon="5.6903">
        <ele>291.59997558594</ele>
        <time>2013-05-05T13:38:41Z</time>
      </trkpt>
      <trkpt lat="45.77814" lon="5.69036">
        <ele>300.09997558594</ele>
        <time>2013-05-05T13:39:02Z</time>
      </trkpt>
      <trkpt lat="45.77781" lon="5.69058">
        <ele>304.5</ele>
        <time>2013-05-05T13:39:24Z</time>
      </trkpt>
      <trkpt lat="45.77753" lon="5.6908">
        <ele>319.40002441406</ele>
        <time>2013-05-05T13:39:46Z</time>
      </trkpt>
      <trkpt lat="45.77717" lon="5.69097">
        <ele>324.29998779297</ele>
        <time>2013-05-05T13:40:10Z</time>
      </trkpt>
      <trkpt lat="45.77691" lon="5.69125">
        <ele>317.79998779297</ele>
        <time>2013-05-05T13:40:34Z</time>
      </trkpt>
      <trkpt lat="45.77653" lon="5.69173">
        <ele>289.59997558594</ele>
        <time>2013-05-05T13:40:59Z</time>
      </trkpt>
      <trkpt lat="45.7763" lon="5.69207">
        <ele>311.09997558594</ele>
        <time>2013-05-05T13:41:24Z</time>
      </trkpt>
      <trkpt lat="45.7761" lon="5.69234">
        <ele>307.20001220703</ele>
        <time>2013-05-05T13:41:45Z</time>
      </trkpt>
      <trkpt lat="45.77583" lon="5.69279">
        <ele>313.90002441406</ele>
        <time>2013-05-05T13:42:07Z</time>
      </trkpt>
      <trkpt lat="45.77555" lon="5.69328">
        <ele>289.09997558594</ele>
        <time>2013-05-05T13:42:32Z</time>
      </trkpt>
      <trkpt lat="45.7754" lon="5.69367">
        <ele>295.5</ele>
        <time>2013-05-05T13:42:53Z</time>
      </trkpt>
      <trkpt lat="45.77525" lon="5.69409">
        <ele>302.5</ele>
        <time>2013-05-05T13:43:16Z</time>
      </trkpt>
      <trkpt lat="45.77515" lon="5.69454">
        <ele>300.79998779297</ele>
        <time>2013-05-05T13:43:38Z</time>
      </trkpt>
      <trkpt lat="45.77505" lon="5.69506">
        <ele>297.79998779297</ele>
        <time>2013-05-05T13:44:00Z</time>
      </trkpt>
      <trkpt lat="45.77507" lon="5.69554">
        <ele>299.90002441406</ele>
        <time>2013-05-05T13:44:22Z</time>
      </trkpt>
      <trkpt lat="45.7751" lon="5.69614">
        <ele>290.59997558594</ele>
        <time>2013-05-05T13:44:45Z</time>
      </trkpt>
      <trkpt lat="45.77516" lon="5.6966">
        <ele>284.59997558594</ele>
        <time>2013-05-05T13:45:07Z</time>
      </trkpt>
      <trkpt lat="45.7752" lon="5.69683">
        <ele>285</ele>
        <time>2013-05-05T13:45:25Z</time>
      </trkpt>
      <trkpt lat="45.7755" lon="5.69726">
        <ele>279.29998779297</ele>
        <time>2013-05-05T13:45:47Z</time>
      </trkpt>
      <trkpt lat="45.77567" lon="5.69763">
        <ele>282.29998779297</ele>
        <time>2013-05-05T13:46:08Z</time>
      </trkpt>
      <trkpt lat="45.7759" lon="5.69791">
        <ele>277.90002441406</ele>
        <time>2013-05-05T13:46:30Z</time>
      </trkpt>
      <trkpt lat="45.77603" lon="5.69801">
        <ele>277.40002441406</ele>
        <time>2013-05-05T13:46:48Z</time>
      </trkpt>
      <trkpt lat="45.77618" lon="5.69822">
        <ele>269.5</ele>
        <time>2013-05-05T13:47:08Z</time>
      </trkpt>
      <trkpt lat="45.77644" lon="5.69846">
        <ele>264.70001220703</ele>
        <time>2013-05-05T13:47:29Z</time>
      </trkpt>
      <trkpt lat="45.77665" lon="5.69864">
        <ele>264.29998779297</ele>
        <time>2013-05-05T13:47:51Z</time>
      </trkpt>
      <trkpt lat="45.777" lon="5.69896">
        <ele>273.29998779297</ele>
        <time>2013-05-05T13:48:14Z</time>
      </trkpt>
      <trkpt lat="45.77788" lon="5.69976">
        <ele>309.79998779297</ele>
        <time>2013-05-05T13:48:35Z</time>
      </trkpt>
      <trkpt lat="45.7791" lon="5.70103">
        <ele>305.20001220703</ele>
        <time>2013-05-05T13:49:00Z</time>
      </trkpt>
      <trkpt lat="45.77981" lon="5.70177">
        <ele>302.90002441406</ele>
        <time>2013-05-05T13:49:22Z</time>
      </trkpt>
      <trkpt lat="45.77978" lon="5.7021">
        <ele>303.09997558594</ele>
        <time>2013-05-05T13:49:44Z</time>
      </trkpt>
      <trkpt lat="45.77953" lon="5.70237">
        <ele>297.29998779297</ele>
        <time>2013-05-05T13:50:08Z</time>
      </trkpt>
      <trkpt lat="45.77934" lon="5.70295">
        <ele>301.40002441406</ele>
        <time>2013-05-05T13:50:33Z</time>
      </trkpt>
      <trkpt lat="45.779" lon="5.70319">
        <ele>313.20001220703</ele>
        <time>2013-05-05T13:50:56Z</time>
      </trkpt>
      <trkpt lat="45.77889" lon="5.70366">
        <ele>305.70001220703</ele>
        <time>2013-05-05T13:51:18Z</time>
      </trkpt>
      <trkpt lat="45.77898" lon="5.7041">
        <ele>302</ele>
        <time>2013-05-05T13:51:39Z</time>
      </trkpt>
      <trkpt lat="45.77912" lon="5.70462">
        <ele>289.20001220703</ele>
        <time>2013-05-05T13:52:00Z</time>
      </trkpt>
      <trkpt lat="45.77926" lon="5.70508">
        <ele>279.40002441406</ele>
        <time>2013-05-05T13:52:21Z</time>
      </trkpt>
      <trkpt lat="45.77944" lon="5.70559">
        <ele>270.79998779297</ele>
        <time>2013-05-05T13:52:43Z</time>
      </trkpt>
      <trkpt lat="45.77965" lon="5.70593">
        <ele>284.5</ele>
        <time>2013-05-05T13:53:04Z</time>
      </trkpt>
      <trkpt lat="45.77991" lon="5.70628">
        <ele>289.29998779297</ele>
        <time>2013-05-05T13:53:26Z</time>
      </trkpt>
      <trkpt lat="45.78016" lon="5.70677">
        <ele>285.09997558594</ele>
        <time>2013-05-05T13:53:48Z</time>
      </trkpt>
      <trkpt lat="45.78041" lon="5.7071">
        <ele>284.20001220703</ele>
        <time>2013-05-05T13:54:09Z</time>
      </trkpt>
      <trkpt lat="45.78055" lon="5.70765">
        <ele>271.5</ele>
        <time>2013-05-05T13:54:30Z</time>
      </trkpt>
      <trkpt lat="45.78077" lon="5.70805">
        <ele>281.90002441406</ele>
        <time>2013-05-05T13:54:52Z</time>
      </trkpt>
      <trkpt lat="45.78084" lon="5.70847">
        <ele>289.20001220703</ele>
        <time>2013-05-05T13:55:16Z</time>
      </trkpt>
      <trkpt lat="45.78091" lon="5.70942">
        <ele>293.70001220703</ele>
        <time>2013-05-05T13:55:51Z</time>
      </trkpt>
      <trkpt lat="45.78088" lon="5.70999">
        <ele>294.90002441406</ele>
        <time>2013-05-05T13:56:15Z</time>
      </trkpt>
      <trkpt lat="45.78072" lon="5.71041">
        <ele>303.5</ele>
        <time>2013-05-05T13:56:38Z</time>
      </trkpt>
      <trkpt lat="45.78073" lon="5.71099">
        <ele>302.40002441406</ele>
        <time>2013-05-05T13:57:02Z</time>
      </trkpt>
      <trkpt lat="45.78064" lon="5.71149">
        <ele>304.20001220703</ele>
        <time>2013-05-05T13:57:24Z</time>
      </trkpt>
      <trkpt lat="45.78028" lon="5.71188">
        <ele>302.29998779297</ele>
        <time>2013-05-05T13:57:45Z</time>
      </trkpt>
      <trkpt lat="45.77996" lon="5.71214">
        <ele>299.70001220703</ele>
        <time>2013-05-05T13:58:09Z</time>
      </trkpt>
      <trkpt lat="45.77958" lon="5.71242">
        <ele>286.09997558594</ele>
        <time>2013-05-05T13:58:32Z</time>
      </trkpt>
      <trkpt lat="45.77924" lon="5.71272">
        <ele>283.90002441406</ele>
        <time>2013-05-05T13:58:54Z</time>
      </trkpt>
      <trkpt lat="45.77889" lon="5.71298">
        <ele>276.90002441406</ele>
        <time>2013-05-05T13:59:16Z</time>
      </trkpt>
      <trkpt lat="45.77854" lon="5.71321">
        <ele>282.29998779297</ele>
        <time>2013-05-05T13:59:39Z</time>
      </trkpt>
      <trkpt lat="45.77808" lon="5.71339">
        <ele>301.59997558594</ele>
        <time>2013-05-05T14:00:03Z</time>
      </trkpt>
      <trkpt lat="45.77772" lon="5.71337">
        <ele>297.90002441406</ele>
        <time>2013-05-05T14:00:25Z</time>
      </trkpt>
      <trkpt lat="45.77739" lon="5.71338">
        <ele>297.59997558594</ele>
        <time>2013-05-05T14:00:46Z</time>
      </trkpt>
      <trkpt lat="45.77695" lon="5.71359">
        <ele>283.5</ele>
        <time>2013-05-05T14:01:11Z</time>
      </trkpt>
      <trkpt lat="45.77648" lon="5.7136">
        <ele>271.70001220703</ele>
        <time>2013-05-05T14:01:36Z</time>
      </trkpt>
      <trkpt lat="45.7761" lon="5.71337">
        <ele>266.79998779297</ele>
        <time>2013-05-05T14:02:00Z</time>
      </trkpt>
      <trkpt lat="45.77563" lon="5.71353">
        <ele>263.79998779297</ele>
        <time>2013-05-05T14:02:24Z</time>
      </trkpt>
      <trkpt lat="45.77515" lon="5.71327">
        <ele>274.40002441406</ele>
        <time>2013-05-05T14:02:51Z</time>
      </trkpt>
      <trkpt lat="45.77474" lon="5.71308">
        <ele>263.29998779297</ele>
        <time>2013-05-05T14:03:17Z</time>
      </trkpt>
      <trkpt lat="45.77422" lon="5.71269">
        <ele>262.5</ele>
        <time>2013-05-05T14:03:43Z</time>
      </trkpt>
      <trkpt lat="45.773" lon="5.7121">
        <ele>371</ele>
        <time>2013-05-05T14:04:09Z</time>
      </trkpt>
      <trkpt lat="45.77207" lon="5.7119">
        <ele>345.59997558594</ele>
        <time>2013-05-05T14:04:35Z</time>
      </trkpt>
      <trkpt lat="45.77178" lon="5.71161">
        <ele>338.5</ele>
        <time>2013-05-05T14:05:00Z</time>
      </trkpt>
      <trkpt lat="45.77156" lon="5.71155">
        <ele>336.70001220703</ele>
        <time>2013-05-05T14:05:25Z</time>
      </trkpt>
      <trkpt lat="45.77116" lon="5.71126">
        <ele>330.70001220703</ele>
        <time>2013-05-05T14:05:51Z</time>
      </trkpt>
      <trkpt lat="45.77096" lon="5.71075">
        <ele>325.20001220703</ele>
        <time>2013-05-05T14:06:12Z</time>
      </trkpt>
      <trkpt lat="45.771" lon="5.71023">
        <ele>311</ele>
        <time>2013-05-05T14:06:36Z</time>
      </trkpt>
      <trkpt lat="45.77071" lon="5.7099">
        <ele>295.70001220703</ele>
        <time>2013-05-05T14:06:57Z</time>
      </trkpt>
      <trkpt lat="45.77011" lon="5.70951">
        <ele>277.29998779297</ele>
        <time>2013-05-05T14:07:21Z</time>
      </trkpt>
      <trkpt lat="45.76866" lon="5.70841">
        <ele>271.90002441406</ele>
        <time>2013-05-05T14:07:45Z</time>
      </trkpt>
      <trkpt lat="45.76814" lon="5.70806">
        <ele>267.90002441406</ele>
        <time>2013-05-05T14:08:10Z</time>
      </trkpt>
      <trkpt lat="45.76778" lon="5.70767">
        <ele>263.79998779297</ele>
        <time>2013-05-05T14:08:34Z</time>
      </trkpt>
      <trkpt lat="45.76747" lon="5.70749">
        <ele>262.29998779297</ele>
        <time>2013-05-05T14:08:56Z</time>
      </trkpt>
      <trkpt lat="45.76719" lon="5.70729">
        <ele>254.40002441406</ele>
        <time>2013-05-05T14:09:17Z</time>
      </trkpt>
      <trkpt lat="45.76688" lon="5.70708">
        <ele>253.20001220703</ele>
        <time>2013-05-05T14:09:39Z</time>
      </trkpt>
      <trkpt lat="45.76656" lon="5.70681">
        <ele>251.79998779297</ele>
        <time>2013-05-05T14:10:01Z</time>
      </trkpt>
      <trkpt lat="45.76626" lon="5.70658">
        <ele>255.90002441406</ele>
        <time>2013-05-05T14:10:22Z</time>
      </trkpt>
      <trkpt lat="45.76595" lon="5.70635">
        <ele>243.59997558594</ele>
        <time>2013-05-05T14:10:42Z</time>
      </trkpt>
      <trkpt lat="45.76499" lon="5.70566">
        <ele>236.59997558594</ele>
        <time>2013-05-05T14:11:06Z</time>
      </trkpt>
      <trkpt lat="45.76338" lon="5.70438">
        <ele>284.90002441406</ele>
        <time>2013-05-05T14:11:30Z</time>
      </trkpt>
      <trkpt lat="45.76308" lon="5.70423">
        <ele>291.40002441406</ele>
        <time>2013-05-05T14:11:52Z</time>
      </trkpt>
      <trkpt lat="45.76275" lon="5.70406">
        <ele>274.90002441406</ele>
        <time>2013-05-05T14:12:14Z</time>
      </trkpt>
      <trkpt lat="45.76233" lon="5.70391">
        <ele>278.09997558594</ele>
        <time>2013-05-05T14:12:38Z</time>
      </trkpt>
      <trkpt lat="45.76183" lon="5.70384">
        <ele>265.90002441406</ele>
        <time>2013-05-05T14:13:05Z</time>
      </trkpt>
      <trkpt lat="45.76156" lon="5.70387">
        <ele>278.29998779297</ele>
        <time>2013-05-05T14:13:26Z</time>
      </trkpt>
      <trkpt lat="45.76111" lon="5.70401">
        <ele>284</ele>
        <time>2013-05-05T14:13:48Z</time>
      </trkpt>
      <trkpt lat="45.76061" lon="5.70423">
        <ele>269.40002441406</ele>
        <time>2013-05-05T14:14:13Z</time>
      </trkpt>
      <trkpt lat="45.76029" lon="5.70446">
        <ele>266.90002441406</ele>
        <time>2013-05-05T14:14:36Z</time>
      </trkpt>
      <trkpt lat="45.75994" lon="5.70483">
        <ele>269.79998779297</ele>
        <time>2013-05-05T14:15:00Z</time>
      </trkpt>
      <trkpt lat="45.7596" lon="5.70519">
        <ele>257</ele>
        <time>2013-05-05T14:15:26Z</time>
      </trkpt>
      <trkpt lat="45.75922" lon="5.70538">
        <ele>253.59997558594</ele>
        <time>2013-05-05T14:15:48Z</time>
      </trkpt>
      <trkpt lat="45.75889" lon="5.7058">
        <ele>275.5</ele>
        <time>2013-05-05T14:16:13Z</time>
      </trkpt>
      <trkpt lat="45.7586" lon="5.70619">
        <ele>291.29998779297</ele>
        <time>2013-05-05T14:16:37Z</time>
      </trkpt>
      <trkpt lat="45.75848" lon="5.70668">
        <ele>283</ele>
        <time>2013-05-05T14:17:02Z</time>
      </trkpt>
      <trkpt lat="45.75834" lon="5.70726">
        <ele>289.59997558594</ele>
        <time>2013-05-05T14:17:27Z</time>
      </trkpt>
      <trkpt lat="45.75797" lon="5.70713">
        <ele>257</ele>
        <time>2013-05-05T14:17:52Z</time>
      </trkpt>
      <trkpt lat="45.75782" lon="5.70737">
        <ele>262.70001220703</ele>
        <time>2013-05-05T14:18:15Z</time>
      </trkpt>
      <trkpt lat="45.75746" lon="5.70717">
        <ele>286.59997558594</ele>
        <time>2013-05-05T14:18:40Z</time>
      </trkpt>
      <trkpt lat="45.75737" lon="5.70694">
        <ele>272.59997558594</ele>
        <time>2013-05-05T14:19:02Z</time>
      </trkpt>
      <trkpt lat="45.75719" lon="5.70727">
        <ele>278.09997558594</ele>
        <time>2013-05-05T14:19:26Z</time>
      </trkpt>
      <trkpt lat="45.75714" lon="5.70782">
        <ele>280.90002441406</ele>
        <time>2013-05-05T14:19:51Z</time>
      </trkpt>
      <trkpt lat="45.75713" lon="5.70828">
        <ele>278.5</ele>
        <time>2013-05-05T14:20:13Z</time>
      </trkpt>
      <trkpt lat="45.7571" lon="5.70876">
        <ele>266.5</ele>
        <time>2013-05-05T14:20:35Z</time>
      </trkpt>
      <trkpt lat="45.75661" lon="5.70878">
        <ele>305.90002441406</ele>
        <time>2013-05-05T14:21:01Z</time>
      </trkpt>
      <trkpt lat="45.7563" lon="5.70882">
        <ele>278.79998779297</ele>
        <time>2013-05-05T14:21:22Z</time>
      </trkpt>
      <trkpt lat="45.75616" lon="5.7087">
        <ele>278.20001220703</ele>
        <time>2013-05-05T14:21:47Z</time>
      </trkpt>
      <trkpt lat="45.75589" lon="5.70825">
        <ele>269.59997558594</ele>
        <time>2013-05-05T14:22:11Z</time>
      </trkpt>
      <trkpt lat="45.7557" lon="5.70785">
        <ele>262.40002441406</ele>
        <time>2013-05-05T14:22:33Z</time>
      </trkpt>
      <trkpt lat="45.75543" lon="5.70771">
        <ele>263.90002441406</ele>
        <time>2013-05-05T14:22:54Z</time>
      </trkpt>
      <trkpt lat="45.75514" lon="5.70781">
        <ele>266.20001220703</ele>
        <time>2013-05-05T14:23:16Z</time>
      </trkpt>
      <trkpt lat="45.75489" lon="5.70764">
        <ele>271.5</ele>
        <time>2013-05-05T14:23:37Z</time>
      </trkpt>
      <trkpt lat="45.75496" lon="5.70731">
        <ele>266.5</ele>
        <time>2013-05-05T14:23:59Z</time>
      </trkpt>
      <trkpt lat="45.75506" lon="5.7069">
        <ele>265.09997558594</ele>
        <time>2013-05-05T14:24:24Z</time>
      </trkpt>
      <trkpt lat="45.75483" lon="5.70646">
        <ele>260.59997558594</ele>
        <time>2013-05-05T14:24:48Z</time>
      </trkpt>
      <trkpt lat="45.75457" lon="5.7061">
        <ele>257.20001220703</ele>
        <time>2013-05-05T14:25:10Z</time>
      </trkpt>
      <trkpt lat="45.75428" lon="5.7057">
        <ele>271.90002441406</ele>
        <time>2013-05-05T14:25:35Z</time>
      </trkpt>
      <trkpt lat="45.75388" lon="5.70523">
        <ele>252.40002441406</ele>
        <time>2013-05-05T14:26:00Z</time>
      </trkpt>
      <trkpt lat="45.75356" lon="5.70484">
        <ele>245.70001220703</ele>
        <time>2013-05-05T14:26:26Z</time>
      </trkpt>
      <trkpt lat="45.75323" lon="5.70443">
        <ele>263</ele>
        <time>2013-05-05T14:26:52Z</time>
      </trkpt>
      <trkpt lat="45.75292" lon="5.70421">
        <ele>243.59997558594</ele>
        <time>2013-05-05T14:27:17Z</time>
      </trkpt>
      <trkpt lat="45.75264" lon="5.70403">
        <ele>222.29998779297</ele>
        <time>2013-05-05T14:27:42Z</time>
      </trkpt>
      <trkpt lat="45.75224" lon="5.70384">
        <ele>228.5</ele>
        <time>2013-05-05T14:28:06Z</time>
      </trkpt>
      <trkpt lat="45.75159" lon="5.70357">
        <ele>280.70001220703</ele>
        <time>2013-05-05T14:28:31Z</time>
      </trkpt>
      <trkpt lat="45.75123" lon="5.70347">
        <ele>260.5</ele>
        <time>2013-05-05T14:28:55Z</time>
      </trkpt>
      <trkpt lat="45.75079" lon="5.70336">
        <ele>244.70001220703</ele>
        <time>2013-05-05T14:29:17Z</time>
      </trkpt>
      <trkpt lat="45.75037" lon="5.70332">
        <ele>265.20001220703</ele>
        <time>2013-05-05T14:29:42Z</time>
      </trkpt>
      <trkpt lat="45.75004" lon="5.70335">
        <ele>255.40002441406</ele>
        <time>2013-05-05T14:30:03Z</time>
      </trkpt>
      <trkpt lat="45.74942" lon="5.70304">
        <ele>269.79998779297</ele>
        <time>2013-05-05T14:30:29Z</time>
      </trkpt>
      <trkpt lat="45.74936" lon="5.70273">
        <ele>276.09997558594</ele>
        <time>2013-05-05T14:30:54Z</time>
      </trkpt>
      <trkpt lat="45.74896" lon="5.70207">
        <ele>279.79998779297</ele>
        <time>2013-05-05T14:31:18Z</time>
      </trkpt>
      <trkpt lat="45.74807" lon="5.70149">
        <ele>246.29998779297</ele>
        <time>2013-05-05T14:31:44Z</time>
      </trkpt>
      <trkpt lat="45.74755" lon="5.70164">
        <ele>297.90002441406</ele>
        <time>2013-05-05T14:32:10Z</time>
      </trkpt>
      <trkpt lat="45.74734" lon="5.70201">
        <ele>285.79998779297</ele>
        <time>2013-05-05T14:32:31Z</time>
      </trkpt>
      <trkpt lat="45.74702" lon="5.70232">
        <ele>268.20001220703</ele>
        <time>2013-05-05T14:32:55Z</time>
      </trkpt>
      <trkpt lat="45.74662" lon="5.70264">
        <ele>271.5</ele>
        <time>2013-05-05T14:33:21Z</time>
      </trkpt>
      <trkpt lat="45.74631" lon="5.70286">
        <ele>260.5</ele>
        <time>2013-05-05T14:33:42Z</time>
      </trkpt>
      <trkpt lat="45.74575" lon="5.70294">
        <ele>252.40002441406</ele>
        <time>2013-05-05T14:34:08Z</time>
      </trkpt>
      <trkpt lat="45.74433" lon="5.70272">
        <ele>253.40002441406</ele>
        <time>2013-05-05T14:34:35Z</time>
      </trkpt>
      <trkpt lat="45.74374" lon="5.70269">
        <ele>234.40002441406</ele>
        <time>2013-05-05T14:35:01Z</time>
      </trkpt>
      <trkpt lat="45.74344" lon="5.70244">
        <ele>319.20001220703</ele>
        <time>2013-05-05T14:35:26Z</time>
      </trkpt>
      <trkpt lat="45.74307" lon="5.70247">
        <ele>280.29998779297</ele>
        <time>2013-05-05T14:35:47Z</time>
      </trkpt>
      <trkpt lat="45.74195" lon="5.70243">
        <ele>282</ele>
        <time>2013-05-05T14:36:13Z</time>
      </trkpt>
      <trkpt lat="45.74139" lon="5.70248">
        <ele>265.40002441406</ele>
        <time>2013-05-05T14:36:39Z</time>
      </trkpt>
      <trkpt lat="45.74102" lon="5.70275">
        <ele>253.29998779297</ele>
        <time>2013-05-05T14:37:03Z</time>
      </trkpt>
      <trkpt lat="45.74073" lon="5.70292">
        <ele>265</ele>
        <time>2013-05-05T14:37:26Z</time>
      </trkpt>
      <trkpt lat="45.74049" lon="5.70296">
        <ele>255.90002441406</ele>
        <time>2013-05-05T14:37:48Z</time>
      </trkpt>
      <trkpt lat="45.74022" lon="5.70333">
        <ele>261.5</ele>
        <time>2013-05-05T14:38:12Z</time>
      </trkpt>
      <trkpt lat="45.73979" lon="5.70372">
        <ele>275.20001220703</ele>
        <time>2013-05-05T14:38:38Z</time>
      </trkpt>
      <trkpt lat="45.73945" lon="5.70404">
        <ele>271.09997558594</ele>
        <time>2013-05-05T14:39:00Z</time>
      </trkpt>
      <trkpt lat="45.73904" lon="5.70423">
        <ele>250.70001220703</ele>
        <time>2013-05-05T14:39:23Z</time>
      </trkpt>
      <trkpt lat="45.7387" lon="5.70417">
        <ele>164.20001220703</ele>
        <time>2013-05-05T14:39:50Z</time>
      </trkpt>
      <trkpt lat="45.73848" lon="5.70357">
        <ele>164.20001220703</ele>
        <time>2013-05-05T14:40:21Z</time>
      </trkpt>
      <trkpt lat="45.73782" lon="5.70442">
        <ele>247.90002441406</ele>
        <time>2013-05-05T14:40:45Z</time>
      </trkpt>
      <trkpt lat="45.73775" lon="5.70407">
        <ele>255.90002441406</ele>
        <time>2013-05-05T14:41:10Z</time>
      </trkpt>
      <trkpt lat="45.73795" lon="5.70383">
        <ele>281.40002441406</ele>
        <time>2013-05-05T14:41:36Z</time>
      </trkpt>
      <trkpt lat="45.73781" lon="5.70344">
        <ele>287.59997558594</ele>
        <time>2013-05-05T14:42:07Z</time>
      </trkpt>
      <trkpt lat="45.73742" lon="5.70315">
        <ele>283.70001220703</ele>
        <time>2013-05-05T14:42:37Z</time>
      </trkpt>
      <trkpt lat="45.73703" lon="5.70265">
        <ele>280.5</ele>
        <time>2013-05-05T14:43:07Z</time>
      </trkpt>
      <trkpt lat="45.73666" lon="5.7026">
        <ele>270.09997558594</ele>
        <time>2013-05-05T14:43:39Z</time>
      </trkpt>
      <trkpt lat="45.73624" lon="5.70246">
        <ele>255.29998779297</ele>
        <time>2013-05-05T14:44:07Z</time>
      </trkpt>
      <trkpt lat="45.73579" lon="5.70202">
        <ele>255.09997558594</ele>
        <time>2013-05-05T14:44:35Z</time>
      </trkpt>
      <trkpt lat="45.7354" lon="5.70161">
        <ele>258</ele>
        <time>2013-05-05T14:45:01Z</time>
      </trkpt>
      <trkpt lat="45.73513" lon="5.70134">
        <ele>256.09997558594</ele>
        <time>2013-05-05T14:45:25Z</time>
      </trkpt>
      <trkpt lat="45.73472" lon="5.70096">
        <ele>262.40002441406</ele>
        <time>2013-05-05T14:45:49Z</time>
      </trkpt>
      <trkpt lat="45.73443" lon="5.70067">
        <ele>253.79998779297</ele>
        <time>2013-05-05T14:46:11Z</time>
      </trkpt>
      <trkpt lat="45.73409" lon="5.70033">
        <ele>258</ele>
        <time>2013-05-05T14:46:33Z</time>
      </trkpt>
      <trkpt lat="45.73374" lon="5.70011">
        <ele>288</ele>
        <time>2013-05-05T14:46:57Z</time>
      </trkpt>
      <trkpt lat="45.73348" lon="5.69989">
        <ele>270.20001220703</ele>
        <time>2013-05-05T14:47:19Z</time>
      </trkpt>
      <trkpt lat="45.73296" lon="5.69954">
        <ele>284.29998779297</ele>
        <time>2013-05-05T14:47:42Z</time>
      </trkpt>
      <trkpt lat="45.73262" lon="5.69929">
        <ele>270.40002441406</ele>
        <time>2013-05-05T14:48:05Z</time>
      </trkpt>
      <trkpt lat="45.73223" lon="5.69904">
        <ele>254.79998779297</ele>
        <time>2013-05-05T14:48:30Z</time>
      </trkpt>
      <trkpt lat="45.73177" lon="5.69882">
        <ele>274.70001220703</ele>
        <time>2013-05-05T14:48:55Z</time>
      </trkpt>
      <trkpt lat="45.73135" lon="5.69862">
        <ele>231.09997558594</ele>
        <time>2013-05-05T14:49:20Z</time>
      </trkpt>
      <trkpt lat="45.73098" lon="5.69835">
        <ele>232.79998779297</ele>
        <time>2013-05-05T14:49:46Z</time>
      </trkpt>
      <trkpt lat="45.73056" lon="5.69803">
        <ele>255.09997558594</ele>
        <time>2013-05-05T14:50:11Z</time>
      </trkpt>
      <trkpt lat="45.73002" lon="5.69776">
        <ele>276.40002441406</ele>
        <time>2013-05-05T14:50:38Z</time>
      </trkpt>
      <trkpt lat="45.72964" lon="5.69757">
        <ele>287.79998779297</ele>
        <time>2013-05-05T14:51:03Z</time>
      </trkpt>
      <trkpt lat="45.72928" lon="5.69739">
        <ele>270.29998779297</ele>
        <time>2013-05-05T14:51:26Z</time>
      </trkpt>
      <trkpt lat="45.72875" lon="5.69721">
        <ele>292.90002441406</ele>
        <time>2013-05-05T14:51:53Z</time>
      </trkpt>
      <trkpt lat="45.72836" lon="5.69709">
        <ele>278.40002441406</ele>
        <time>2013-05-05T14:52:14Z</time>
      </trkpt>
      <trkpt lat="45.72802" lon="5.69705">
        <ele>252.79998779297</ele>
        <time>2013-05-05T14:52:36Z</time>
      </trkpt>
      <trkpt lat="45.72765" lon="5.69704">
        <ele>240.29998779297</ele>
        <time>2013-05-05T14:52:58Z</time>
      </trkpt>
      <trkpt lat="45.72721" lon="5.69707">
        <ele>245.40002441406</ele>
        <time>2013-05-05T14:53:23Z</time>
      </trkpt>
      <trkpt lat="45.72684" lon="5.69694">
        <ele>241.09997558594</ele>
        <time>2013-05-05T14:53:46Z</time>
      </trkpt>
      <trkpt lat="45.72652" lon="5.69665">
        <ele>288.20001220703</ele>
        <time>2013-05-05T14:54:10Z</time>
      </trkpt>
      <trkpt lat="45.72664" lon="5.6966">
        <ele>234.79998779297</ele>
        <time>2013-05-05T14:55:02Z</time>
      </trkpt>
      <trkpt lat="45.72654" lon="5.69665">
        <ele>237.90002441406</ele>
        <time>2013-05-05T14:55:27Z</time>
      </trkpt>
      <trkpt lat="45.72611" lon="5.69652">
        <ele>248</ele>
        <time>2013-05-05T14:56:55Z</time>
      </trkpt>
      <trkpt lat="45.72577" lon="5.69654">
        <ele>246.09997558594</ele>
        <time>2013-05-05T14:57:23Z</time>
      </trkpt>
      <trkpt lat="45.72558" lon="5.69675">
        <ele>248.70001220703</ele>
        <time>2013-05-05T14:57:51Z</time>
      </trkpt>
      <trkpt lat="45.72463" lon="5.69711">
        <ele>273.79998779297</ele>
        <time>2013-05-05T14:58:25Z</time>
      </trkpt>
      <trkpt lat="45.7241" lon="5.69743">
        <ele>264.5</ele>
        <time>2013-05-05T14:58:54Z</time>
      </trkpt>
      <trkpt lat="45.72372" lon="5.69746">
        <ele>308.70001220703</ele>
        <time>2013-05-05T14:59:21Z</time>
      </trkpt>
      <trkpt lat="45.72331" lon="5.69766">
        <ele>340.09997558594</ele>
        <time>2013-05-05T14:59:55Z</time>
      </trkpt>
      <trkpt lat="45.72297" lon="5.69764">
        <ele>356.29998779297</ele>
        <time>2013-05-05T15:00:35Z</time>
      </trkpt>
      <trkpt lat="45.72237" lon="5.69788">
        <ele>371.70001220703</ele>
        <time>2013-05-05T15:01:14Z</time>
      </trkpt>
      <trkpt lat="45.72183" lon="5.69779">
        <ele>390.90002441406</ele>
        <time>2013-05-05T15:01:39Z</time>
      </trkpt>
      <trkpt lat="45.72101" lon="5.69794">
        <ele>327.5</ele>
        <time>2013-05-05T15:02:10Z</time>
      </trkpt>
      <trkpt lat="45.72032" lon="5.69814">
        <ele>288.09997558594</ele>
        <time>2013-05-05T15:02:37Z</time>
      </trkpt>
      <trkpt lat="45.71972" lon="5.69808">
        <ele>261.59997558594</ele>
        <time>2013-05-05T15:03:11Z</time>
      </trkpt>
      <trkpt lat="45.71933" lon="5.69793">
        <ele>284.29998779297</ele>
        <time>2013-05-05T15:03:35Z</time>
      </trkpt>
      <trkpt lat="45.71893" lon="5.69786">
        <ele>288</ele>
        <time>2013-05-05T15:04:00Z</time>
      </trkpt>
      <trkpt lat="45.71831" lon="5.69789">
        <ele>270.40002441406</ele>
        <time>2013-05-05T15:04:25Z</time>
      </trkpt>
      <trkpt lat="45.71787" lon="5.69772">
        <ele>254.20001220703</ele>
        <time>2013-05-05T15:04:51Z</time>
      </trkpt>
      <trkpt lat="45.71732" lon="5.69783">
        <ele>270.90002441406</ele>
        <time>2013-05-05T15:05:17Z</time>
      </trkpt>
      <trkpt lat="45.71706" lon="5.69774">
        <ele>256.79998779297</ele>
        <time>2013-05-05T15:05:41Z</time>
      </trkpt>
      <trkpt lat="45.71666" lon="5.69764">
        <ele>253.5</ele>
        <time>2013-05-05T15:06:06Z</time>
      </trkpt>
      <trkpt lat="45.71637" lon="5.69747">
        <ele>251.5</ele>
        <time>2013-05-05T15:06:32Z</time>
      </trkpt>
      <trkpt lat="45.71606" lon="5.69732">
        <ele>263.29998779297</ele>
        <time>2013-05-05T15:06:58Z</time>
      </trkpt>
      <trkpt lat="45.71513" lon="5.69744">
        <ele>272.59997558594</ele>
        <time>2013-05-05T15:07:49Z</time>
      </trkpt>
      <trkpt lat="45.71484" lon="5.69745">
        <ele>283.29998779297</ele>
        <time>2013-05-05T15:08:14Z</time>
      </trkpt>
      <trkpt lat="45.71492" lon="5.69783">
        <ele>279.90002441406</ele>
        <time>2013-05-05T15:08:40Z</time>
      </trkpt>
      <trkpt lat="45.71499" lon="5.69832">
        <ele>286.90002441406</ele>
        <time>2013-05-05T15:09:06Z</time>
      </trkpt>
      <trkpt lat="45.71516" lon="5.69883">
        <ele>286.59997558594</ele>
        <time>2013-05-05T15:09:30Z</time>
      </trkpt>
      <trkpt lat="45.71512" lon="5.69939">
        <ele>295.79998779297</ele>
        <time>2013-05-05T15:09:55Z</time>
      </trkpt>
      <trkpt lat="45.71502" lon="5.70028">
        <ele>257.29998779297</ele>
        <time>2013-05-05T15:10:27Z</time>
      </trkpt>
      <trkpt lat="45.71458" lon="5.70124">
        <ele>239</ele>
        <time>2013-05-05T15:10:52Z</time>
      </trkpt>
      <trkpt lat="45.7146" lon="5.70183">
        <ele>243.20001220703</ele>
        <time>2013-05-05T15:11:19Z</time>
      </trkpt>
      <trkpt lat="45.71463" lon="5.70161">
        <ele>252.20001220703</ele>
        <time>2013-05-05T15:11:41Z</time>
      </trkpt>
      <trkpt lat="45.71461" lon="5.70122">
        <ele>267.90002441406</ele>
        <time>2013-05-05T15:13:15Z</time>
      </trkpt>
      <trkpt lat="45.7147" lon="5.70117">
        <ele>267.20001220703</ele>
        <time>2013-05-05T15:13:38Z</time>
      </trkpt>
    </trkseg>
  </trk>
</gpx>